<?xml version='1.0' encoding='UTF-8'?><gpx version="1.1" creator="JPX - https://github.com/jenetics/jpx" xmlns="http://www.topografix.com/GPX/1/1"><trk><trkseg><trkpt lat="37.5707967" lon="15.0537017"><ele>403.00000000000006</ele><time>2026-04-10T09:01:25.853Z</time></trkpt><trkpt lat="37.5708462" lon="15.0537982"><ele>403.0</ele><time>2026-04-10T09:01:29.856Z</time></trkpt><trkpt lat="37.5708881" lon="15.053888"><ele>403.0</ele><time>2026-04-10T09:01:32.955Z</time></trkpt><trkpt lat="37.5709435" lon="15.0539639"><ele>403.0</ele><time>2026-04-10T09:01:35.934Z</time></trkpt><trkpt lat="37.5710042" lon="15.0539961"><ele>403.00000000000006</ele><time>2026-04-10T09:01:39.886Z</time></trkpt><trkpt lat="37.5710642" lon="15.0539401"><ele>403.0</ele><time>2026-04-10T09:01:43.915Z</time></trkpt><trkpt lat="37.5711137" lon="15.0538879"><ele>403.0</ele><time>2026-04-10T09:01:45.917Z</time></trkpt><trkpt lat="37.5711878" lon="15.0538277"><ele>403.0</ele><time>2026-04-10T09:01:48.976Z</time></trkpt><trkpt lat="37.5712539" lon="15.0537819"><ele>403.0</ele><time>2026-04-10T09:01:51.916Z</time></trkpt><trkpt lat="37.5713133" lon="15.0537292"><ele>403.0</ele><time>2026-04-10T09:01:54.965Z</time></trkpt><trkpt lat="37.5713703" lon="15.0536785"><ele>403.0</ele><time>2026-04-10T09:01:57.982Z</time></trkpt><trkpt lat="37.571432" lon="15.0536217"><ele>403.0</ele><time>2026-04-10T09:02:01.933Z</time></trkpt><trkpt lat="37.5714652" lon="15.0535516"><ele>403.0</ele><time>2026-04-10T09:02:04.896Z</time></trkpt><trkpt lat="37.5714006" lon="15.0534792"><ele>403.33333333333337</ele><time>2026-04-10T09:02:09.955Z</time></trkpt><trkpt lat="37.571358" lon="15.0534014"><ele>403.6666666666667</ele><time>2026-04-10T09:02:12.838Z</time></trkpt><trkpt lat="37.5713109" lon="15.0533206"><ele>404.0</ele><time>2026-04-10T09:02:15.869Z</time></trkpt><trkpt lat="37.5712601" lon="15.0532395"><ele>404.33333333333337</ele><time>2026-04-10T09:02:18.935Z</time></trkpt><trkpt lat="37.5712201" lon="15.0531676"><ele>404.6666666666667</ele><time>2026-04-10T09:02:21.901Z</time></trkpt><trkpt lat="37.5711814" lon="15.0530815"><ele>405.0</ele><time>2026-04-10T09:02:25.957Z</time></trkpt><trkpt lat="37.5711379" lon="15.0529975"><ele>404.99999999999994</ele><time>2026-04-10T09:02:28.954Z</time></trkpt><trkpt lat="37.5711046" lon="15.0529238"><ele>405.0</ele><time>2026-04-10T09:02:31.885Z</time></trkpt><trkpt lat="37.5710639" lon="15.0528383"><ele>405.0</ele><time>2026-04-10T09:02:35.836Z</time></trkpt><trkpt lat="37.5710243" lon="15.0527728"><ele>405.0</ele><time>2026-04-10T09:02:38.957Z</time></trkpt><trkpt lat="37.5709466" lon="15.0527693"><ele>405.0</ele><time>2026-04-10T09:02:42.909Z</time></trkpt><trkpt lat="37.5708766" lon="15.0528181"><ele>404.99999999999994</ele><time>2026-04-10T09:02:46.965Z</time></trkpt><trkpt lat="37.5708192" lon="15.0528662"><ele>405.0</ele><time>2026-04-10T09:02:49.877Z</time></trkpt><trkpt lat="37.5707561" lon="15.0529088"><ele>404.99999999999994</ele><time>2026-04-10T09:02:52.936Z</time></trkpt><trkpt lat="37.5707072" lon="15.0529636"><ele>405.0</ele><time>2026-04-10T09:02:55.909Z</time></trkpt><trkpt lat="37.5706541" lon="15.0530082"><ele>405.0</ele><time>2026-04-10T09:02:58.925Z</time></trkpt><trkpt lat="37.5705931" lon="15.0530483"><ele>405.0</ele><time>2026-04-10T09:03:01.986Z</time></trkpt><trkpt lat="37.5705417" lon="15.0531079"><ele>405.0</ele><time>2026-04-10T09:03:05.275Z</time></trkpt><trkpt lat="37.5705374" lon="15.0531966"><ele>404.99999999999994</ele><time>2026-04-10T09:03:08.616Z</time></trkpt><trkpt lat="37.5705823" lon="15.0532646"><ele>405.0</ele><time>2026-04-10T09:03:11.935Z</time></trkpt><trkpt lat="37.5706316" lon="15.0533389"><ele>404.71428571428567</ele><time>2026-04-10T09:03:15.996Z</time></trkpt><trkpt lat="37.5706649" lon="15.0534092"><ele>404.42857142857144</ele><time>2026-04-10T09:03:18.995Z</time></trkpt><trkpt lat="37.5707007" lon="15.0534782"><ele>404.1428571428571</ele><time>2026-04-10T09:03:21.935Z</time></trkpt><trkpt lat="37.570742" lon="15.0535696"><ele>403.85714285714283</ele><time>2026-04-10T09:03:25.896Z</time></trkpt><trkpt lat="37.5707803" lon="15.0536442"><ele>403.57142857142856</ele><time>2026-04-10T09:03:28.878Z</time></trkpt><trkpt lat="37.570817" lon="15.0537164"><ele>403.2857142857143</ele><time>2026-04-10T09:03:31.893Z</time></trkpt><trkpt lat="37.5708548" lon="15.0537939"><ele>403.0</ele><time>2026-04-10T09:03:34.999Z</time></trkpt><trkpt lat="37.5709004" lon="15.0538845"><ele>403.00000000000006</ele><time>2026-04-10T09:03:38.935Z</time></trkpt><trkpt lat="37.5709411" lon="15.053956"><ele>403.0</ele><time>2026-04-10T09:03:41.878Z</time></trkpt><trkpt lat="37.5709969" lon="15.0539955"><ele>403.0</ele><time>2026-04-10T09:03:47.003Z</time></trkpt><trkpt lat="37.5710978" lon="15.0538824"><ele>403.0</ele><time>2026-04-10T09:03:53.997Z</time></trkpt><trkpt lat="37.5711698" lon="15.0538185"><ele>403.00000000000006</ele><time>2026-04-10T09:03:56.896Z</time></trkpt><trkpt lat="37.5712392" lon="15.0537656"><ele>403.0</ele><time>2026-04-10T09:03:59.973Z</time></trkpt><trkpt lat="37.5713042" lon="15.0537105"><ele>403.5714285714286</ele><time>2026-04-10T09:04:03.797Z</time></trkpt><trkpt lat="37.5713596" lon="15.0536559"><ele>404.1428571428571</ele><time>2026-04-10T09:04:07.895Z</time></trkpt><trkpt lat="37.5714168" lon="15.0536033"><ele>404.7142857142857</ele><time>2026-04-10T09:04:11.933Z</time></trkpt><trkpt lat="37.5714207" lon="15.0535135"><ele>405.28571428571433</ele><time>2026-04-10T09:04:18.901Z</time></trkpt><trkpt lat="37.5713691" lon="15.0534511"><ele>405.8571428571429</ele><time>2026-04-10T09:04:21.917Z</time></trkpt><trkpt lat="37.5713166" lon="15.0533676"><ele>406.42857142857144</ele><time>2026-04-10T09:04:24.796Z</time></trkpt><trkpt lat="37.5712676" lon="15.0532862"><ele>407.0</ele><time>2026-04-10T09:04:27.816Z</time></trkpt><trkpt lat="37.5712381" lon="15.053216"><ele>407.28571428571433</ele><time>2026-04-10T09:04:30.855Z</time></trkpt><trkpt lat="37.5712034" lon="15.0531335"><ele>407.57142857142856</ele><time>2026-04-10T09:04:34.918Z</time></trkpt><trkpt lat="37.5711622" lon="15.053062"><ele>407.8571428571429</ele><time>2026-04-10T09:04:37.933Z</time></trkpt><trkpt lat="37.571132" lon="15.0529899"><ele>408.14285714285717</ele><time>2026-04-10T09:04:41.989Z</time></trkpt><trkpt lat="37.5710934" lon="15.0529098"><ele>408.42857142857144</ele><time>2026-04-10T09:04:46.255Z</time></trkpt><trkpt lat="37.5710612" lon="15.0528404"><ele>408.7142857142857</ele><time>2026-04-10T09:04:49.535Z</time></trkpt><trkpt lat="37.5710082" lon="15.0527775"><ele>409.0</ele><time>2026-04-10T09:04:53.636Z</time></trkpt><trkpt lat="37.5709404" lon="15.0527929"><ele>408.4285714285714</ele><time>2026-04-10T09:04:57.901Z</time></trkpt><trkpt lat="37.5708962" lon="15.0528545"><ele>407.8571428571429</ele><time>2026-04-10T09:05:00.896Z</time></trkpt><trkpt lat="37.5708396" lon="15.0529117"><ele>407.2857142857143</ele><time>2026-04-10T09:05:03.934Z</time></trkpt><trkpt lat="37.5707769" lon="15.05296"><ele>406.71428571428567</ele><time>2026-04-10T09:05:07.989Z</time></trkpt><trkpt lat="37.570705" lon="15.053007"><ele>406.1428571428571</ele><time>2026-04-10T09:05:11.853Z</time></trkpt><trkpt lat="37.5706435" lon="15.0530389"><ele>405.57142857142856</ele><time>2026-04-10T09:05:14.935Z</time></trkpt><trkpt lat="37.570565" lon="15.0530712"><ele>405.0</ele><time>2026-04-10T09:05:18.997Z</time></trkpt><trkpt lat="37.5705156" lon="15.0531383"><ele>404.99999999999994</ele><time>2026-04-10T09:05:22.965Z</time></trkpt><trkpt lat="37.5705395" lon="15.0532222"><ele>405.0</ele><time>2026-04-10T09:05:25.981Z</time></trkpt><trkpt lat="37.5705805" lon="15.0532936"><ele>405.0</ele><time>2026-04-10T09:05:28.975Z</time></trkpt><trkpt lat="37.5706005" lon="15.0533821"><ele>405.0</ele><time>2026-04-10T09:05:32.95Z</time></trkpt><trkpt lat="37.570641" lon="15.0534717"><ele>405.0</ele><time>2026-04-10T09:05:36.901Z</time></trkpt><trkpt lat="37.5706799" lon="15.0535518"><ele>404.99999999999994</ele><time>2026-04-10T09:05:40.958Z</time></trkpt><trkpt lat="37.5707207" lon="15.0536341"><ele>405.0</ele><time>2026-04-10T09:05:44.91Z</time></trkpt><trkpt lat="37.5707629" lon="15.0537172"><ele>404.6666666666667</ele><time>2026-04-10T09:05:48.965Z</time></trkpt><trkpt lat="37.570794" lon="15.0537883"><ele>404.33333333333337</ele><time>2026-04-10T09:05:51.981Z</time></trkpt><trkpt lat="37.5708398" lon="15.0538711"><ele>404.0</ele><time>2026-04-10T09:05:55.933Z</time></trkpt><trkpt lat="37.5708796" lon="15.0539576"><ele>403.6666666666667</ele><time>2026-04-10T09:05:59.989Z</time></trkpt><trkpt lat="37.5709345" lon="15.0540125"><ele>403.33333333333337</ele><time>2026-04-10T09:06:03.941Z</time></trkpt><trkpt lat="37.5709958" lon="15.0539324"><ele>403.0</ele><time>2026-04-10T09:06:09.999Z</time></trkpt><trkpt lat="37.5710798" lon="15.0538783"><ele>403.00000000000006</ele><time>2026-04-10T09:06:12.998Z</time></trkpt><trkpt lat="37.5711384" lon="15.0538453"><ele>403.0</ele><time>2026-04-10T09:06:14.834Z</time></trkpt><trkpt lat="37.5712165" lon="15.0538062"><ele>403.0</ele><time>2026-04-10T09:06:17.982Z</time></trkpt><trkpt lat="37.571276" lon="15.0537549"><ele>403.0</ele><time>2026-04-10T09:06:21.855Z</time></trkpt><trkpt lat="37.5713392" lon="15.0536898"><ele>403.00000000000006</ele><time>2026-04-10T09:06:26.002Z</time></trkpt><trkpt lat="37.571397" lon="15.0536312"><ele>403.0</ele><time>2026-04-10T09:06:29.941Z</time></trkpt><trkpt lat="37.5714528" lon="15.0535705"><ele>403.2857142857143</ele><time>2026-04-10T09:06:33.894Z</time></trkpt><trkpt lat="37.5714508" lon="15.0534867"><ele>403.57142857142856</ele><time>2026-04-10T09:06:38.989Z</time></trkpt><trkpt lat="37.5713993" lon="15.0534226"><ele>403.85714285714283</ele><time>2026-04-10T09:06:42.942Z</time></trkpt><trkpt lat="37.5713456" lon="15.0533456"><ele>404.1428571428571</ele><time>2026-04-10T09:06:45.957Z</time></trkpt><trkpt lat="37.5712951" lon="15.0532786"><ele>404.42857142857144</ele><time>2026-04-10T09:06:48.973Z</time></trkpt><trkpt lat="37.5712559" lon="15.0532156"><ele>404.71428571428567</ele><time>2026-04-10T09:06:51.885Z</time></trkpt><trkpt lat="37.5712224" lon="15.0531462"><ele>405.0</ele><time>2026-04-10T09:06:54.956Z</time></trkpt><trkpt lat="37.5711831" lon="15.0530681"><ele>404.99999999999994</ele><time>2026-04-10T09:06:59.4Z</time></trkpt><trkpt lat="37.5711471" lon="15.0529938"><ele>405.0</ele><time>2026-04-10T09:07:02.677Z</time></trkpt><trkpt lat="37.5711093" lon="15.0529068"><ele>405.0</ele><time>2026-04-10T09:07:06.861Z</time></trkpt><trkpt lat="37.5710701" lon="15.0528263"><ele>405.0</ele><time>2026-04-10T09:07:10.917Z</time></trkpt><trkpt lat="37.5710176" lon="15.0527705"><ele>405.0</ele><time>2026-04-10T09:07:15Z</time></trkpt><trkpt lat="37.5709397" lon="15.0527849"><ele>404.99999999999994</ele><time>2026-04-10T09:07:18.926Z</time></trkpt><trkpt lat="37.5708818" lon="15.052825"><ele>405.0</ele><time>2026-04-10T09:07:21.941Z</time></trkpt><trkpt lat="37.5708177" lon="15.0528509"><ele>404.99999999999994</ele><time>2026-04-10T09:07:24.996Z</time></trkpt><trkpt lat="37.5707393" lon="15.0528816"><ele>405.0</ele><time>2026-04-10T09:07:28.909Z</time></trkpt><trkpt lat="37.5706782" lon="15.0529358"><ele>405.0</ele><time>2026-04-10T09:07:32.837Z</time></trkpt><trkpt lat="37.5706232" lon="15.0529787"><ele>405.0</ele><time>2026-04-10T09:07:35.877Z</time></trkpt><trkpt lat="37.5705637" lon="15.0530251"><ele>405.0</ele><time>2026-04-10T09:07:38.894Z</time></trkpt><trkpt lat="37.5705297" lon="15.0531068"><ele>404.99999999999994</ele><time>2026-04-10T09:07:42.949Z</time></trkpt><trkpt lat="37.5705394" lon="15.0531865"><ele>405.0</ele><time>2026-04-10T09:07:45.975Z</time></trkpt><trkpt lat="37.5705889" lon="15.0532617"><ele>404.71428571428567</ele><time>2026-04-10T09:07:49.956Z</time></trkpt><trkpt lat="37.5706173" lon="15.0533354"><ele>404.42857142857144</ele><time>2026-04-10T09:07:52.918Z</time></trkpt><trkpt lat="37.5706429" lon="15.0534192"><ele>404.1428571428571</ele><time>2026-04-10T09:07:56.989Z</time></trkpt><trkpt lat="37.5706763" lon="15.0534974"><ele>403.85714285714283</ele><time>2026-04-10T09:08:00.941Z</time></trkpt><trkpt lat="37.5707162" lon="15.0535713"><ele>403.57142857142856</ele><time>2026-04-10T09:08:04.916Z</time></trkpt><trkpt lat="37.5707573" lon="15.0536624"><ele>403.2857142857143</ele><time>2026-04-10T09:08:08.95Z</time></trkpt><trkpt lat="37.5708" lon="15.0537506"><ele>403.0</ele><time>2026-04-10T09:08:12.901Z</time></trkpt><trkpt lat="37.5708414" lon="15.0538296"><ele>403.0</ele><time>2026-04-10T09:08:16.855Z</time></trkpt><trkpt lat="37.5708884" lon="15.0539118"><ele>403.0</ele><time>2026-04-10T09:08:20.909Z</time></trkpt><trkpt lat="37.5709283" lon="15.0539782"><ele>403.0</ele><time>2026-04-10T09:08:23.976Z</time></trkpt><trkpt lat="37.5710046" lon="15.053943"><ele>403.0</ele><time>2026-04-10T09:08:29.957Z</time></trkpt><trkpt lat="37.5710656" lon="15.0538968"><ele>403.0</ele><time>2026-04-10T09:08:32.973Z</time></trkpt><trkpt lat="37.5711271" lon="15.0538514"><ele>403.0</ele><time>2026-04-10T09:08:35.976Z</time></trkpt><trkpt lat="37.5711821" lon="15.0538005"><ele>403.0</ele><time>2026-04-10T09:08:38.901Z</time></trkpt><trkpt lat="37.5712372" lon="15.0537603"><ele>403.5714285714286</ele><time>2026-04-10T09:08:41.975Z</time></trkpt><trkpt lat="37.5713051" lon="15.0537047"><ele>404.1428571428571</ele><time>2026-04-10T09:08:45.973Z</time></trkpt><trkpt lat="37.5713668" lon="15.053651"><ele>404.7142857142857</ele><time>2026-04-10T09:08:49.925Z</time></trkpt><trkpt lat="37.5714177" lon="15.0535976"><ele>405.28571428571433</ele><time>2026-04-10T09:08:53.976Z</time></trkpt><trkpt lat="37.5713958" lon="15.0535089"><ele>405.8571428571429</ele><time>2026-04-10T09:08:59.976Z</time></trkpt><trkpt lat="37.5713523" lon="15.0534321"><ele>406.42857142857144</ele><time>2026-04-10T09:09:03.316Z</time></trkpt><trkpt lat="37.5713171" lon="15.0533518"><ele>407.0</ele><time>2026-04-10T09:09:06.736Z</time></trkpt><trkpt lat="37.5712767" lon="15.0532682"><ele>407.28571428571433</ele><time>2026-04-10T09:09:10.816Z</time></trkpt><trkpt lat="37.5712403" lon="15.0531911"><ele>407.57142857142856</ele><time>2026-04-10T09:09:14.885Z</time></trkpt><trkpt lat="37.5712004" lon="15.0531067"><ele>407.8571428571429</ele><time>2026-04-10T09:09:18.941Z</time></trkpt><trkpt lat="37.5711612" lon="15.0530242"><ele>408.14285714285717</ele><time>2026-04-10T09:09:22.855Z</time></trkpt><trkpt lat="37.5711236" lon="15.0529457"><ele>408.42857142857144</ele><time>2026-04-10T09:09:26.949Z</time></trkpt><trkpt lat="37.5710826" lon="15.0528623"><ele>408.7142857142857</ele><time>2026-04-10T09:09:30.816Z</time></trkpt><trkpt lat="37.5710466" lon="15.0527948"><ele>409.0</ele><time>2026-04-10T09:09:34.616Z</time></trkpt><trkpt lat="37.5709813" lon="15.0528005"><ele>408.33333333333337</ele><time>2026-04-10T09:09:39.95Z</time></trkpt><trkpt lat="37.5709267" lon="15.0528477"><ele>407.6666666666667</ele><time>2026-04-10T09:09:42.965Z</time></trkpt><trkpt lat="37.5708584" lon="15.0529063"><ele>407.0</ele><time>2026-04-10T09:09:46.816Z</time></trkpt><trkpt lat="37.5707997" lon="15.0529531"><ele>406.33333333333337</ele><time>2026-04-10T09:09:49.934Z</time></trkpt><trkpt lat="37.5707374" lon="15.0529964"><ele>405.6666666666667</ele><time>2026-04-10T09:09:53.885Z</time></trkpt><trkpt lat="37.5706606" lon="15.0530418"><ele>405.0</ele><time>2026-04-10T09:09:57.855Z</time></trkpt><trkpt lat="37.5705821" lon="15.0530724"><ele>404.99999999999994</ele><time>2026-04-10T09:10:01.915Z</time></trkpt><trkpt lat="37.5705323" lon="15.0531264"><ele>405.0</ele><time>2026-04-10T09:10:05.852Z</time></trkpt><trkpt lat="37.5705394" lon="15.0532227"><ele>405.0</ele><time>2026-04-10T09:10:09.901Z</time></trkpt><trkpt lat="37.5705666" lon="15.0532994"><ele>405.0</ele><time>2026-04-10T09:10:12.977Z</time></trkpt><trkpt lat="37.5706111" lon="15.0533654"><ele>405.0</ele><time>2026-04-10T09:10:16.974Z</time></trkpt><trkpt lat="37.570658" lon="15.0534343"><ele>404.99999999999994</ele><time>2026-04-10T09:10:20.926Z</time></trkpt><trkpt lat="37.5706967" lon="15.0535141"><ele>405.0</ele><time>2026-04-10T09:10:24.981Z</time></trkpt><trkpt lat="37.5707334" lon="15.0535905"><ele>404.71428571428567</ele><time>2026-04-10T09:10:28.855Z</time></trkpt><trkpt lat="37.5707701" lon="15.0536619"><ele>404.42857142857144</ele><time>2026-04-10T09:10:32.875Z</time></trkpt><trkpt lat="37.5708077" lon="15.0537369"><ele>404.1428571428571</ele><time>2026-04-10T09:10:36.942Z</time></trkpt><trkpt lat="37.5708488" lon="15.0538255"><ele>403.85714285714283</ele><time>2026-04-10T09:10:40.894Z</time></trkpt><trkpt lat="37.5708843" lon="15.0538957"><ele>403.57142857142856</ele><time>2026-04-10T09:10:43.909Z</time></trkpt><trkpt lat="37.5709337" lon="15.0539765"><ele>403.2857142857143</ele><time>2026-04-10T09:10:47.965Z</time></trkpt><trkpt lat="37.5709923" lon="15.0540061"><ele>403.0</ele><time>2026-04-10T09:10:53.894Z</time></trkpt><trkpt lat="37.5710463" lon="15.0539356"><ele>403.0</ele><time>2026-04-10T09:10:58.885Z</time></trkpt><trkpt lat="37.5711043" lon="15.0538751"><ele>403.0</ele><time>2026-04-10T09:11:01.902Z</time></trkpt><trkpt lat="37.5711699" lon="15.0538242"><ele>403.0</ele><time>2026-04-10T09:11:04.917Z</time></trkpt><trkpt lat="37.5712262" lon="15.0537773"><ele>403.0</ele><time>2026-04-10T09:11:08.87Z</time></trkpt><trkpt lat="37.5712867" lon="15.0537226"><ele>403.0</ele><time>2026-04-10T09:11:12.955Z</time></trkpt><trkpt lat="37.5713475" lon="15.0536694"><ele>403.0</ele><time>2026-04-10T09:11:16.982Z</time></trkpt><trkpt lat="37.5714049" lon="15.0536062"><ele>403.0</ele><time>2026-04-10T09:11:20.836Z</time></trkpt><trkpt lat="37.5713949" lon="15.0535201"><ele>403.2857142857143</ele><time>2026-04-10T09:11:27.901Z</time></trkpt><trkpt lat="37.571345" lon="15.0534623"><ele>403.57142857142856</ele><time>2026-04-10T09:11:31.955Z</time></trkpt><trkpt lat="37.5712989" lon="15.0533819"><ele>403.85714285714283</ele><time>2026-04-10T09:11:34.975Z</time></trkpt><trkpt lat="37.571265" lon="15.0533113"><ele>404.1428571428571</ele><time>2026-04-10T09:11:38.008Z</time></trkpt><trkpt lat="37.5712319" lon="15.053239"><ele>404.42857142857144</ele><time>2026-04-10T09:11:41.942Z</time></trkpt><trkpt lat="37.5711871" lon="15.0531466"><ele>404.71428571428567</ele><time>2026-04-10T09:11:45.915Z</time></trkpt><trkpt lat="37.5711471" lon="15.0530626"><ele>405.0</ele><time>2026-04-10T09:11:49.949Z</time></trkpt><trkpt lat="37.5711107" lon="15.0529877"><ele>404.99999999999994</ele><time>2026-04-10T09:11:53.902Z</time></trkpt><trkpt lat="37.5710729" lon="15.0529088"><ele>405.0</ele><time>2026-04-10T09:11:58.895Z</time></trkpt><trkpt lat="37.5710324" lon="15.0528384"><ele>405.0</ele><time>2026-04-10T09:12:03.886Z</time></trkpt><trkpt lat="37.5709699" lon="15.0528116"><ele>405.0</ele><time>2026-04-10T09:12:09.917Z</time></trkpt><trkpt lat="37.5709185" lon="15.0528657"><ele>405.0</ele><time>2026-04-10T09:12:12.933Z</time></trkpt><trkpt lat="37.5708435" lon="15.0529106"><ele>404.99999999999994</ele><time>2026-04-10T09:12:16.895Z</time></trkpt><trkpt lat="37.5707773" lon="15.052937"><ele>405.0</ele><time>2026-04-10T09:12:19.901Z</time></trkpt><trkpt lat="37.5707145" lon="15.0529601"><ele>404.99999999999994</ele><time>2026-04-10T09:12:22.917Z</time></trkpt><trkpt lat="37.5706508" lon="15.0529966"><ele>405.0</ele><time>2026-04-10T09:12:26.835Z</time></trkpt><trkpt lat="37.5705921" lon="15.0530601"><ele>405.0</ele><time>2026-04-10T09:12:30.915Z</time></trkpt><trkpt lat="37.5705396" lon="15.0531341"><ele>405.0</ele><time>2026-04-10T09:12:34.936Z</time></trkpt><trkpt lat="37.5705467" lon="15.0532252"><ele>405.0</ele><time>2026-04-10T09:12:38.998Z</time></trkpt><trkpt lat="37.5705889" lon="15.0532888"><ele>404.99999999999994</ele><time>2026-04-10T09:12:42.955Z</time></trkpt><trkpt lat="37.5706375" lon="15.0533685"><ele>405.0</ele><time>2026-04-10T09:12:46.976Z</time></trkpt><trkpt lat="37.5706767" lon="15.0534507"><ele>404.71428571428567</ele><time>2026-04-10T09:12:50.996Z</time></trkpt><trkpt lat="37.5707143" lon="15.0535202"><ele>404.42857142857144</ele><time>2026-04-10T09:12:54.949Z</time></trkpt><trkpt lat="37.5707583" lon="15.0536087"><ele>404.1428571428571</ele><time>2026-04-10T09:12:58.901Z</time></trkpt><trkpt lat="37.5707924" lon="15.0536814"><ele>403.85714285714283</ele><time>2026-04-10T09:13:01.975Z</time></trkpt><trkpt lat="37.5708243" lon="15.0537501"><ele>403.57142857142856</ele><time>2026-04-10T09:13:04.916Z</time></trkpt><trkpt lat="37.5708636" lon="15.0538301"><ele>403.2857142857143</ele><time>2026-04-10T09:13:09Z</time></trkpt><trkpt lat="37.5709033" lon="15.0539006"><ele>403.0</ele><time>2026-04-10T09:13:12.896Z</time></trkpt><trkpt lat="37.5709525" lon="15.0539829"><ele>403.0</ele><time>2026-04-10T09:13:16.956Z</time></trkpt><trkpt lat="37.5710273" lon="15.0539589"><ele>403.0</ele><time>2026-04-10T09:13:25.876Z</time></trkpt><trkpt lat="37.5710812" lon="15.0539021"><ele>403.0</ele><time>2026-04-10T09:13:28.895Z</time></trkpt><trkpt lat="37.5711437" lon="15.0538582"><ele>403.0</ele><time>2026-04-10T09:13:31.856Z</time></trkpt><trkpt lat="37.5711953" lon="15.05381"><ele>403.0</ele><time>2026-04-10T09:13:34.989Z</time></trkpt><trkpt lat="37.5712475" lon="15.0537511"><ele>403.0</ele><time>2026-04-10T09:13:37.835Z</time></trkpt><trkpt lat="37.571299" lon="15.0537021"><ele>403.0</ele><time>2026-04-10T09:13:40.855Z</time></trkpt><trkpt lat="37.5713644" lon="15.053642"><ele>403.5714285714286</ele><time>2026-04-10T09:13:44.895Z</time></trkpt><trkpt lat="37.5714191" lon="15.0535816"><ele>404.1428571428571</ele><time>2026-04-10T09:13:48.925Z</time></trkpt><trkpt lat="37.571389" lon="15.0534854"><ele>404.7142857142857</ele><time>2026-04-10T09:13:56.935Z</time></trkpt><trkpt lat="37.5713563" lon="15.0534159"><ele>405.28571428571433</ele><time>2026-04-10T09:13:59.895Z</time></trkpt><trkpt lat="37.5713152" lon="15.0533325"><ele>405.8571428571429</ele><time>2026-04-10T09:14:03.901Z</time></trkpt><trkpt lat="37.5712833" lon="15.0532635"><ele>406.42857142857144</ele><time>2026-04-10T09:14:07.957Z</time></trkpt><trkpt lat="37.5712379" lon="15.053174"><ele>407.0</ele><time>2026-04-10T09:14:11.909Z</time></trkpt><trkpt lat="37.5712052" lon="15.0531014"><ele>406.7142857142857</ele><time>2026-04-10T09:14:15.916Z</time></trkpt><trkpt lat="37.57117" lon="15.053032"><ele>406.42857142857144</ele><time>2026-04-10T09:14:19.955Z</time></trkpt><trkpt lat="37.571135" lon="15.0529559"><ele>406.1428571428571</ele><time>2026-04-10T09:14:23.869Z</time></trkpt><trkpt lat="37.5710972" lon="15.052878"><ele>405.8571428571429</ele><time>2026-04-10T09:14:27.797Z</time></trkpt><trkpt lat="37.5710568" lon="15.0528099"><ele>405.57142857142856</ele><time>2026-04-10T09:14:31.855Z</time></trkpt><trkpt lat="37.5709878" lon="15.0528264"><ele>405.2857142857143</ele><time>2026-04-10T09:14:37.776Z</time></trkpt><trkpt lat="37.5709217" lon="15.0528861"><ele>405.0</ele><time>2026-04-10T09:14:40.926Z</time></trkpt><trkpt lat="37.5708537" lon="15.0529206"><ele>404.99999999999994</ele><time>2026-04-10T09:14:43.942Z</time></trkpt><trkpt lat="37.5707897" lon="15.0529601"><ele>405.0</ele><time>2026-04-10T09:14:46.853Z</time></trkpt><trkpt lat="37.5707295" lon="15.0529968"><ele>405.0</ele><time>2026-04-10T09:14:49.875Z</time></trkpt><trkpt lat="37.5706624" lon="15.0530401"><ele>405.0</ele><time>2026-04-10T09:14:53.925Z</time></trkpt><trkpt lat="37.5706005" lon="15.0530707"><ele>405.0</ele><time>2026-04-10T09:14:57.175Z</time></trkpt><trkpt lat="37.5705399" lon="15.053131"><ele>404.99999999999994</ele><time>2026-04-10T09:15:01.615Z</time></trkpt><trkpt lat="37.570546" lon="15.0532179"><ele>405.0</ele><time>2026-04-10T09:15:04.796Z</time></trkpt><trkpt lat="37.5705956" lon="15.0532732"><ele>404.71428571428567</ele><time>2026-04-10T09:15:09.975Z</time></trkpt><trkpt lat="37.5706307" lon="15.0533414"><ele>404.42857142857144</ele><time>2026-04-10T09:15:13.893Z</time></trkpt><trkpt lat="37.5706735" lon="15.0534307"><ele>404.1428571428571</ele><time>2026-04-10T09:15:17.852Z</time></trkpt><trkpt lat="37.5707138" lon="15.0535151"><ele>403.85714285714283</ele><time>2026-04-10T09:15:21.901Z</time></trkpt><trkpt lat="37.5707526" lon="15.053593"><ele>403.57142857142856</ele><time>2026-04-10T09:15:25.957Z</time></trkpt><trkpt lat="37.5707925" lon="15.0536728"><ele>403.2857142857143</ele><time>2026-04-10T09:15:29.795Z</time></trkpt><trkpt lat="37.5708269" lon="15.0537424"><ele>403.0</ele><time>2026-04-10T09:15:33.236Z</time></trkpt><trkpt lat="37.5708689" lon="15.0538303"><ele>403.0</ele><time>2026-04-10T09:15:37.695Z</time></trkpt><trkpt lat="37.5709104" lon="15.0539114"><ele>403.0</ele><time>2026-04-10T09:15:41.755Z</time></trkpt><trkpt lat="37.5709549" lon="15.05398"><ele>403.0</ele><time>2026-04-10T09:15:45.195Z</time></trkpt><trkpt lat="37.5710234" lon="15.0539813"><ele>403.0</ele><time>2026-04-10T09:15:51.996Z</time></trkpt><trkpt lat="37.5710683" lon="15.0539251"><ele>403.0</ele><time>2026-04-10T09:15:54.256Z</time></trkpt><trkpt lat="37.5711216" lon="15.0538791"><ele>403.0</ele><time>2026-04-10T09:15:57.596Z</time></trkpt><trkpt lat="37.5711781" lon="15.0538207"><ele>403.0</ele><time>2026-04-10T09:16:00.901Z</time></trkpt><trkpt lat="37.5712319" lon="15.0537731"><ele>403.5714285714286</ele><time>2026-04-10T09:16:03.917Z</time></trkpt><trkpt lat="37.5712922" lon="15.0537169"><ele>404.1428571428571</ele><time>2026-04-10T09:16:07.955Z</time></trkpt><trkpt lat="37.5713537" lon="15.0536686"><ele>404.7142857142857</ele><time>2026-04-10T09:16:11.815Z</time></trkpt><trkpt lat="37.5714063" lon="15.0536076"><ele>405.28571428571433</ele><time>2026-04-10T09:16:16.917Z</time></trkpt><trkpt lat="37.5714027" lon="15.0535205"><ele>405.8571428571429</ele><time>2026-04-10T09:16:23.886Z</time></trkpt><trkpt lat="37.5713634" lon="15.053456"><ele>406.42857142857144</ele><time>2026-04-10T09:16:26.895Z</time></trkpt><trkpt lat="37.5713306" lon="15.0533735"><ele>407.0</ele><time>2026-04-10T09:16:30.957Z</time></trkpt><trkpt lat="37.5712989" lon="15.0532942"><ele>407.28571428571433</ele><time>2026-04-10T09:16:34.91Z</time></trkpt><trkpt lat="37.5712657" lon="15.0532213"><ele>407.57142857142856</ele><time>2026-04-10T09:16:38.915Z</time></trkpt><trkpt lat="37.5712287" lon="15.0531435"><ele>407.8571428571429</ele><time>2026-04-10T09:16:42.917Z</time></trkpt><trkpt lat="37.5711883" lon="15.0530594"><ele>408.14285714285717</ele><time>2026-04-10T09:16:47.975Z</time></trkpt><trkpt lat="37.5711551" lon="15.052987"><ele>408.42857142857144</ele><time>2026-04-10T09:16:51.895Z</time></trkpt><trkpt lat="37.57112" lon="15.0529152"><ele>408.7142857142857</ele><time>2026-04-10T09:16:55.815Z</time></trkpt><trkpt lat="37.5710813" lon="15.0528432"><ele>409.0</ele><time>2026-04-10T09:17:00.096Z</time></trkpt><trkpt lat="37.5710199" lon="15.0527909"><ele>408.4285714285714</ele><time>2026-04-10T09:17:05.902Z</time></trkpt><trkpt lat="37.5709423" lon="15.0528272"><ele>407.8571428571429</ele><time>2026-04-10T09:17:09.957Z</time></trkpt><trkpt lat="37.5708766" lon="15.0528861"><ele>407.2857142857143</ele><time>2026-04-10T09:17:13.91Z</time></trkpt><trkpt lat="37.5708238" lon="15.0529302"><ele>406.71428571428567</ele><time>2026-04-10T09:17:16.925Z</time></trkpt><trkpt lat="37.5707591" lon="15.0529835"><ele>406.1428571428571</ele><time>2026-04-10T09:17:20.981Z</time></trkpt><trkpt lat="37.5706914" lon="15.0530284"><ele>405.57142857142856</ele><time>2026-04-10T09:17:24.896Z</time></trkpt><trkpt lat="37.5706299" lon="15.0530465"><ele>405.0</ele><time>2026-04-10T09:17:27.996Z</time></trkpt><trkpt lat="37.5705687" lon="15.0530668"><ele>404.99999999999994</ele><time>2026-04-10T09:17:31.355Z</time></trkpt><trkpt lat="37.5705267" lon="15.053152"><ele>405.0</ele><time>2026-04-10T09:17:35.936Z</time></trkpt><trkpt lat="37.5705372" lon="15.0532338"><ele>405.0</ele><time>2026-04-10T09:17:38.955Z</time></trkpt><trkpt lat="37.5705707" lon="15.0533092"><ele>405.0</ele><time>2026-04-10T09:17:42.926Z</time></trkpt><trkpt lat="37.5706146" lon="15.0533694"><ele>405.0</ele><time>2026-04-10T09:17:46.935Z</time></trkpt><trkpt lat="37.5706629" lon="15.0534311"><ele>404.99999999999994</ele><time>2026-04-10T09:17:50.996Z</time></trkpt><trkpt lat="37.5706989" lon="15.0535022"><ele>405.0</ele><time>2026-04-10T09:17:54.886Z</time></trkpt><trkpt lat="37.5707365" lon="15.0535846"><ele>404.71428571428567</ele><time>2026-04-10T09:17:58.856Z</time></trkpt><trkpt lat="37.5707793" lon="15.0536732"><ele>404.42857142857144</ele><time>2026-04-10T09:18:02.895Z</time></trkpt><trkpt lat="37.5708193" lon="15.0537516"><ele>404.1428571428571</ele><time>2026-04-10T09:18:06.949Z</time></trkpt><trkpt lat="37.5708516" lon="15.0538211"><ele>403.85714285714283</ele><time>2026-04-10T09:18:10.902Z</time></trkpt><trkpt lat="37.5708929" lon="15.0539003"><ele>403.57142857142856</ele><time>2026-04-10T09:18:14.896Z</time></trkpt><trkpt lat="37.5709347" lon="15.053973"><ele>403.2857142857143</ele><time>2026-04-10T09:18:18.909Z</time></trkpt><trkpt lat="37.5709926" lon="15.0540166"><ele>403.0</ele><time>2026-04-10T09:18:24.941Z</time></trkpt><trkpt lat="37.5710533" lon="15.0539509"><ele>403.0</ele><time>2026-04-10T09:18:28.956Z</time></trkpt><trkpt lat="37.5711106" lon="15.053903"><ele>403.0</ele><time>2026-04-10T09:18:31.975Z</time></trkpt><trkpt lat="37.5711724" lon="15.0538387"><ele>403.0</ele><time>2026-04-10T09:18:35.965Z</time></trkpt><trkpt lat="37.5712354" lon="15.0537875"><ele>403.0</ele><time>2026-04-10T09:18:40.001Z</time></trkpt><trkpt lat="37.5712988" lon="15.0537378"><ele>403.0</ele><time>2026-04-10T09:18:44.496Z</time></trkpt><trkpt lat="37.5713528" lon="15.0536863"><ele>403.0</ele><time>2026-04-10T09:18:47.916Z</time></trkpt><trkpt lat="37.5714079" lon="15.05363"><ele>403.0</ele><time>2026-04-10T09:18:52.918Z</time></trkpt><trkpt lat="37.5714122" lon="15.0535454"><ele>403.2857142857143</ele><time>2026-04-10T09:18:59.995Z</time></trkpt><trkpt lat="37.571378" lon="15.0534766"><ele>403.57142857142856</ele><time>2026-04-10T09:19:02.98Z</time></trkpt><trkpt lat="37.5713443" lon="15.053404"><ele>403.85714285714283</ele><time>2026-04-10T09:19:05.918Z</time></trkpt><trkpt lat="37.5713042" lon="15.053339"><ele>404.1428571428571</ele><time>2026-04-10T09:19:08.956Z</time></trkpt><trkpt lat="37.5712682" lon="15.0532718"><ele>404.42857142857144</ele><time>2026-04-10T09:19:11.895Z</time></trkpt><trkpt lat="37.5712275" lon="15.0531886"><ele>404.71428571428567</ele><time>2026-04-10T09:19:16.941Z</time></trkpt><trkpt lat="37.5711944" lon="15.0531183"><ele>405.0</ele><time>2026-04-10T09:19:20.896Z</time></trkpt><trkpt lat="37.5711561" lon="15.0530427"><ele>404.99999999999994</ele><time>2026-04-10T09:19:25.886Z</time></trkpt><trkpt lat="37.5711166" lon="15.0529611"><ele>405.0</ele><time>2026-04-10T09:19:29.814Z</time></trkpt><trkpt lat="37.5710775" lon="15.0528796"><ele>405.0</ele><time>2026-04-10T09:19:34.852Z</time></trkpt><trkpt lat="37.5710326" lon="15.0528209"><ele>405.0</ele><time>2026-04-10T09:19:39.815Z</time></trkpt><trkpt lat="37.5709694" lon="15.0528254"><ele>405.0</ele><time>2026-04-10T09:19:45.958Z</time></trkpt><trkpt lat="37.5709188" lon="15.0528798"><ele>404.99999999999994</ele><time>2026-04-10T09:19:48.869Z</time></trkpt><trkpt lat="37.5708627" lon="15.0529195"><ele>405.0</ele><time>2026-04-10T09:19:51.885Z</time></trkpt><trkpt lat="37.5708012" lon="15.0529637"><ele>404.99999999999994</ele><time>2026-04-10T09:19:54.901Z</time></trkpt><trkpt lat="37.5707397" lon="15.052983"><ele>405.0</ele><time>2026-04-10T09:19:57.918Z</time></trkpt><trkpt lat="37.5706796" lon="15.0530179"><ele>405.0</ele><time>2026-04-10T09:20:00.853Z</time></trkpt><trkpt lat="37.5706159" lon="15.0530574"><ele>405.0</ele><time>2026-04-10T09:20:04.886Z</time></trkpt><trkpt lat="37.5705548" lon="15.0530852"><ele>405.0</ele><time>2026-04-10T09:20:07.877Z</time></trkpt><trkpt lat="37.5705121" lon="15.0531586"><ele>404.99999999999994</ele><time>2026-04-10T09:20:11.936Z</time></trkpt><trkpt lat="37.5705421" lon="15.0532384"><ele>405.0</ele><time>2026-04-10T09:20:15.936Z</time></trkpt><trkpt lat="37.5705875" lon="15.0533177"><ele>404.71428571428567</ele><time>2026-04-10T09:20:19.966Z</time></trkpt><trkpt lat="37.5706322" lon="15.0533908"><ele>404.42857142857144</ele><time>2026-04-10T09:20:23.917Z</time></trkpt><trkpt lat="37.5706609" lon="15.0534694"><ele>404.1428571428571</ele><time>2026-04-10T09:20:27.973Z</time></trkpt><trkpt lat="37.5707098" lon="15.0535561"><ele>403.85714285714283</ele><time>2026-04-10T09:20:32.855Z</time></trkpt><trkpt lat="37.5707526" lon="15.0536435"><ele>403.57142857142856</ele><time>2026-04-10T09:20:36.975Z</time></trkpt><trkpt lat="37.5707869" lon="15.0537108"><ele>403.2857142857143</ele><time>2026-04-10T09:20:40.955Z</time></trkpt><trkpt lat="37.5708236" lon="15.053784"><ele>403.0</ele><time>2026-04-10T09:20:44.925Z</time></trkpt><trkpt lat="37.5708598" lon="15.0538672"><ele>403.0</ele><time>2026-04-10T09:20:48.877Z</time></trkpt><trkpt lat="37.5709029" lon="15.0539411"><ele>403.0</ele><time>2026-04-10T09:20:52.046Z</time></trkpt><trkpt lat="37.5709454" lon="15.0540096"><ele>403.0</ele><time>2026-04-10T09:20:55.375Z</time></trkpt><trkpt lat="37.5710106" lon="15.0539798"><ele>403.0</ele><time>2026-04-10T09:21:01.878Z</time></trkpt><trkpt lat="37.5710764" lon="15.0539264"><ele>403.0</ele><time>2026-04-10T09:21:05.796Z</time></trkpt><trkpt lat="37.5711405" lon="15.0538647"><ele>403.0</ele><time>2026-04-10T09:21:09.815Z</time></trkpt><trkpt lat="37.5712007" lon="15.0538072"><ele>403.0</ele><time>2026-04-10T09:21:13.942Z</time></trkpt><trkpt lat="37.5712696" lon="15.0537507"><ele>403.5714285714286</ele><time>2026-04-10T09:21:17.958Z</time></trkpt><trkpt lat="37.5713342" lon="15.0536933"><ele>404.1428571428571</ele><time>2026-04-10T09:21:22.885Z</time></trkpt><trkpt lat="37.5713874" lon="15.0536425"><ele>404.7142857142857</ele><time>2026-04-10T09:21:26.941Z</time></trkpt><trkpt lat="37.5714357" lon="15.0535873"><ele>405.28571428571433</ele><time>2026-04-10T09:21:31.195Z</time></trkpt><trkpt lat="37.5714219" lon="15.0534993"><ele>405.8571428571429</ele><time>2026-04-10T09:21:38.901Z</time></trkpt><trkpt lat="37.5713756" lon="15.0534204"><ele>406.42857142857144</ele><time>2026-04-10T09:21:41.918Z</time></trkpt><trkpt lat="37.5713363" lon="15.053354"><ele>407.0</ele><time>2026-04-10T09:21:44.933Z</time></trkpt><trkpt lat="37.5712923" lon="15.0532685"><ele>407.28571428571433</ele><time>2026-04-10T09:21:48.885Z</time></trkpt><trkpt lat="37.571257" lon="15.0531852"><ele>407.57142857142856</ele><time>2026-04-10T09:21:53.877Z</time></trkpt><trkpt lat="37.5712148" lon="15.0531049"><ele>407.8571428571429</ele><time>2026-04-10T09:21:58.876Z</time></trkpt><trkpt lat="37.5711745" lon="15.0530209"><ele>408.14285714285717</ele><time>2026-04-10T09:22:03.861Z</time></trkpt><trkpt lat="37.5711406" lon="15.0529502"><ele>408.42857142857144</ele><time>2026-04-10T09:22:07.857Z</time></trkpt><trkpt lat="37.5711085" lon="15.0528772"><ele>408.7142857142857</ele><time>2026-04-10T09:22:11.869Z</time></trkpt><trkpt lat="37.5710622" lon="15.0528113"><ele>409.0</ele><time>2026-04-10T09:22:15.925Z</time></trkpt><trkpt lat="37.5709859" lon="15.0528274"><ele>408.33333333333337</ele><time>2026-04-10T09:22:22.893Z</time></trkpt><trkpt lat="37.5709282" lon="15.0528643"><ele>407.6666666666667</ele><time>2026-04-10T09:22:25.91Z</time></trkpt><trkpt lat="37.5708564" lon="15.0529079"><ele>407.0</ele><time>2026-04-10T09:22:29.875Z</time></trkpt><trkpt lat="37.57079" lon="15.0529593"><ele>406.33333333333337</ele><time>2026-04-10T09:22:33.918Z</time></trkpt><trkpt lat="37.5707164" lon="15.0530096"><ele>405.6666666666667</ele><time>2026-04-10T09:22:37.998Z</time></trkpt><trkpt lat="37.5706525" lon="15.053048"><ele>405.0</ele><time>2026-04-10T09:22:41.926Z</time></trkpt><trkpt lat="37.5705811" lon="15.0530755"><ele>404.99999999999994</ele><time>2026-04-10T09:22:45.877Z</time></trkpt><trkpt lat="37.5705354" lon="15.0531461"><ele>405.0</ele><time>2026-04-10T09:22:49.934Z</time></trkpt><trkpt lat="37.5705596" lon="15.0532307"><ele>405.0</ele><time>2026-04-10T09:22:53.99Z</time></trkpt><trkpt lat="37.5706" lon="15.0532927"><ele>405.0</ele><time>2026-04-10T09:22:57.941Z</time></trkpt><trkpt lat="37.5706392" lon="15.0533743"><ele>405.0</ele><time>2026-04-10T09:23:01.893Z</time></trkpt><trkpt lat="37.5706747" lon="15.0534438"><ele>404.99999999999994</ele><time>2026-04-10T09:23:05.95Z</time></trkpt><trkpt lat="37.5707124" lon="15.05353"><ele>405.0</ele><time>2026-04-10T09:23:11.981Z</time></trkpt><trkpt lat="37.5707699" lon="15.05363"><ele>404.71428571428567</ele><time>2026-04-10T09:23:16.973Z</time></trkpt><trkpt lat="37.5708059" lon="15.0537024"><ele>404.42857142857144</ele><time>2026-04-10T09:23:19.886Z</time></trkpt><trkpt lat="37.5708417" lon="15.0537836"><ele>404.1428571428571</ele><time>2026-04-10T09:23:24.878Z</time></trkpt><trkpt lat="37.5708839" lon="15.0538697"><ele>403.85714285714283</ele><time>2026-04-10T09:23:28.933Z</time></trkpt><trkpt lat="37.5709308" lon="15.0539352"><ele>403.57142857142856</ele><time>2026-04-10T09:23:31.949Z</time></trkpt><trkpt lat="37.5709876" lon="15.0539859"><ele>403.2857142857143</ele><time>2026-04-10T09:23:35.902Z</time></trkpt><trkpt lat="37.5710542" lon="15.0539794"><ele>403.0</ele><time>2026-04-10T09:23:43.795Z</time></trkpt><trkpt lat="37.5711089" lon="15.0539127"><ele>403.0</ele><time>2026-04-10T09:23:47.862Z</time></trkpt><trkpt lat="37.5711701" lon="15.0538526"><ele>403.0</ele><time>2026-04-10T09:23:51.921Z</time></trkpt><trkpt lat="37.5712238" lon="15.0538099"><ele>403.0</ele><time>2026-04-10T09:23:54.881Z</time></trkpt><trkpt lat="37.5712778" lon="15.0537655"><ele>403.0</ele><time>2026-04-10T09:23:58.819Z</time></trkpt><trkpt lat="37.5713362" lon="15.0537072"><ele>403.0</ele><time>2026-04-10T09:24:03.877Z</time></trkpt><trkpt lat="37.5713905" lon="15.0536503"><ele>403.0</ele><time>2026-04-10T09:24:07.66Z</time></trkpt><trkpt lat="37.5714308" lon="15.0535847"><ele>403.0</ele><time>2026-04-10T09:24:10.95Z</time></trkpt><trkpt lat="37.5713929" lon="15.0534885"><ele>403.2857142857143</ele><time>2026-04-10T09:24:18.854Z</time></trkpt><trkpt lat="37.5713467" lon="15.0534002"><ele>403.57142857142856</ele><time>2026-04-10T09:24:21.869Z</time></trkpt><trkpt lat="37.5713137" lon="15.0533232"><ele>403.85714285714283</ele><time>2026-04-10T09:24:24.886Z</time></trkpt><trkpt lat="37.5712728" lon="15.0532337"><ele>404.1428571428571</ele><time>2026-04-10T09:24:29.878Z</time></trkpt><trkpt lat="37.5712396" lon="15.0531608"><ele>404.42857142857144</ele><time>2026-04-10T09:24:33.901Z</time></trkpt><trkpt lat="37.5712045" lon="15.0530869"><ele>404.71428571428567</ele><time>2026-04-10T09:24:37.96Z</time></trkpt><trkpt lat="37.571168" lon="15.0530146"><ele>405.0</ele><time>2026-04-10T09:24:43.04Z</time></trkpt><trkpt lat="37.5711336" lon="15.0529405"><ele>404.99999999999994</ele><time>2026-04-10T09:24:46.42Z</time></trkpt><trkpt lat="37.5710934" lon="15.0528587"><ele>405.0</ele><time>2026-04-10T09:24:50.861Z</time></trkpt><trkpt lat="37.5710452" lon="15.0528035"><ele>405.0</ele><time>2026-04-10T09:24:55.96Z</time></trkpt><trkpt lat="37.5709727" lon="15.0528173"><ele>405.0</ele><time>2026-04-10T09:25:00.974Z</time></trkpt><trkpt lat="37.5709046" lon="15.0528693"><ele>405.0</ele><time>2026-04-10T09:25:03.99Z</time></trkpt><trkpt lat="37.5708478" lon="15.0529082"><ele>404.99999999999994</ele><time>2026-04-10T09:25:06.901Z</time></trkpt><trkpt lat="37.570782" lon="15.0529586"><ele>405.0</ele><time>2026-04-10T09:25:10.98Z</time></trkpt><trkpt lat="37.5707176" lon="15.0530089"><ele>404.99999999999994</ele><time>2026-04-10T09:25:15.819Z</time></trkpt><trkpt lat="37.570652" lon="15.0530368"><ele>405.0</ele><time>2026-04-10T09:25:19.902Z</time></trkpt><trkpt lat="37.5705784" lon="15.0530717"><ele>405.0</ele><time>2026-04-10T09:25:23.921Z</time></trkpt><trkpt lat="37.5705371" lon="15.053148"><ele>405.0</ele><time>2026-04-10T09:25:28.949Z</time></trkpt><trkpt lat="37.5705545" lon="15.0532281"><ele>405.0</ele><time>2026-04-10T09:25:32.902Z</time></trkpt><trkpt lat="37.5705996" lon="15.0533108"><ele>404.99999999999994</ele><time>2026-04-10T09:25:36.899Z</time></trkpt><trkpt lat="37.5706399" lon="15.0533954"><ele>405.0</ele><time>2026-04-10T09:25:40.909Z</time></trkpt><trkpt lat="37.5706764" lon="15.0534708"><ele>404.71428571428567</ele><time>2026-04-10T09:25:44.965Z</time></trkpt><trkpt lat="37.570714" lon="15.0535441"><ele>404.42857142857144</ele><time>2026-04-10T09:25:48.917Z</time></trkpt><trkpt lat="37.570753" lon="15.0536261"><ele>404.1428571428571</ele><time>2026-04-10T09:25:53.239Z</time></trkpt><trkpt lat="37.5707878" lon="15.0536974"><ele>403.85714285714283</ele><time>2026-04-10T09:25:56.619Z</time></trkpt><trkpt lat="37.5708306" lon="15.0537833"><ele>403.57142857142856</ele><time>2026-04-10T09:26:00.979Z</time></trkpt><trkpt lat="37.5708666" lon="15.0538572"><ele>403.2857142857143</ele><time>2026-04-10T09:26:04.959Z</time></trkpt><trkpt lat="37.5709055" lon="15.0539275"><ele>403.0</ele><time>2026-04-10T09:26:08.989Z</time></trkpt><trkpt lat="37.5709498" lon="15.0540013"><ele>403.0</ele><time>2026-04-10T09:26:12.852Z</time></trkpt><trkpt lat="37.5710233" lon="15.0539676"><ele>403.0</ele><time>2026-04-10T09:26:20.002Z</time></trkpt><trkpt lat="37.5710818" lon="15.0539105"><ele>403.0</ele><time>2026-04-10T09:26:23.965Z</time></trkpt><trkpt lat="37.5711313" lon="15.0538538"><ele>403.0</ele><time>2026-04-10T09:26:26.84Z</time></trkpt><trkpt lat="37.5711774" lon="15.0537878"><ele>403.0</ele><time>2026-04-10T09:26:29.894Z</time></trkpt><trkpt lat="37.5712474" lon="15.0537326"><ele>403.0</ele><time>2026-04-10T09:26:33.861Z</time></trkpt><trkpt lat="37.5713102" lon="15.0536844"><ele>403.0</ele><time>2026-04-10T09:26:39.981Z</time></trkpt><trkpt lat="37.5713722" lon="15.0536241"><ele>403.2857142857143</ele><time>2026-04-10T09:26:43.851Z</time></trkpt><trkpt lat="37.5714132" lon="15.0535537"><ele>403.57142857142856</ele><time>2026-04-10T09:26:48.96Z</time></trkpt><trkpt lat="37.5713885" lon="15.0534729"><ele>403.85714285714283</ele><time>2026-04-10T09:26:55.894Z</time></trkpt><trkpt lat="37.571348" lon="15.0533991"><ele>404.1428571428571</ele><time>2026-04-10T09:26:59.9Z</time></trkpt><trkpt lat="37.5713029" lon="15.0533195"><ele>404.42857142857144</ele><time>2026-04-10T09:27:03.94Z</time></trkpt><trkpt lat="37.57126" lon="15.0532488"><ele>404.71428571428567</ele><time>2026-04-10T09:27:07.957Z</time></trkpt><trkpt lat="37.5712181" lon="15.0531663"><ele>405.0</ele><time>2026-04-10T09:27:12.899Z</time></trkpt><trkpt lat="37.5711815" lon="15.0530875"><ele>404.99999999999994</ele><time>2026-04-10T09:27:17.941Z</time></trkpt><trkpt lat="37.5711452" lon="15.0530124"><ele>405.0</ele><time>2026-04-10T09:27:21.839Z</time></trkpt><trkpt lat="37.5711062" lon="15.0529287"><ele>405.0</ele><time>2026-04-10T09:27:25.919Z</time></trkpt><trkpt lat="37.5710645" lon="15.0528536"><ele>405.0</ele><time>2026-04-10T09:27:29.94Z</time></trkpt><trkpt lat="37.5709994" lon="15.0528336"><ele>405.0</ele><time>2026-04-10T09:27:36.973Z</time></trkpt><trkpt lat="37.5709274" lon="15.0528843"><ele>404.99999999999994</ele><time>2026-04-10T09:27:40.925Z</time></trkpt><trkpt lat="37.5708683" lon="15.0529185"><ele>405.0</ele><time>2026-04-10T09:27:43.942Z</time></trkpt><trkpt lat="37.5708072" lon="15.0529465"><ele>404.99999999999994</ele><time>2026-04-10T09:27:46.957Z</time></trkpt><trkpt lat="37.5707369" lon="15.0529729"><ele>405.0</ele><time>2026-04-10T09:27:50.91Z</time></trkpt><trkpt lat="37.5706647" lon="15.0530279"><ele>405.0</ele><time>2026-04-10T09:27:54.862Z</time></trkpt><trkpt lat="37.5706056" lon="15.0530588"><ele>405.0</ele><time>2026-04-10T09:27:57.878Z</time></trkpt><trkpt lat="37.5705363" lon="15.053084"><ele>405.0</ele><time>2026-04-10T09:28:01.933Z</time></trkpt><trkpt lat="37.5705355" lon="15.0531756"><ele>404.99999999999994</ele><time>2026-04-10T09:28:06.925Z</time></trkpt><trkpt lat="37.5705808" lon="15.0532493"><ele>405.0</ele><time>2026-04-10T09:28:10.878Z</time></trkpt><trkpt lat="37.5706207" lon="15.0533215"><ele>404.6666666666667</ele><time>2026-04-10T09:28:14.976Z</time></trkpt><trkpt lat="37.5706524" lon="15.0533924"><ele>404.33333333333337</ele><time>2026-04-10T09:28:18.99Z</time></trkpt><trkpt lat="37.5707016" lon="15.0534817"><ele>404.0</ele><time>2026-04-10T09:28:22.856Z</time></trkpt><trkpt lat="37.5707457" lon="15.0535653"><ele>403.6666666666667</ele><time>2026-04-10T09:28:25.815Z</time></trkpt><trkpt lat="37.5707951" lon="15.0536481"><ele>403.33333333333337</ele><time>2026-04-10T09:28:29.926Z</time></trkpt><trkpt lat="37.5708163" lon="15.0537247"><ele>403.0</ele><time>2026-04-10T09:28:33.902Z</time></trkpt><trkpt lat="37.5708596" lon="15.0537994"><ele>403.0</ele><time>2026-04-10T09:28:38.901Z</time></trkpt><trkpt lat="37.5709009" lon="15.0538777"><ele>403.0</ele><time>2026-04-10T09:28:43.899Z</time></trkpt><trkpt lat="37.5709379" lon="15.0539456"><ele>403.0</ele><time>2026-04-10T09:28:47.92Z</time></trkpt><trkpt lat="37.5710084" lon="15.0539388"><ele>403.0</ele><time>2026-04-10T09:28:57.902Z</time></trkpt><trkpt lat="37.5710732" lon="15.0538913"><ele>403.0</ele><time>2026-04-10T09:29:00.979Z</time></trkpt><trkpt lat="37.5711427" lon="15.053845"><ele>403.0</ele><time>2026-04-10T09:29:03.96Z</time></trkpt><trkpt lat="37.5712038" lon="15.0538122"><ele>403.0</ele><time>2026-04-10T09:29:06.88Z</time></trkpt><trkpt lat="37.5712729" lon="15.0537727"><ele>403.5714285714286</ele><time>2026-04-10T09:29:10.902Z</time></trkpt><trkpt lat="37.5713386" lon="15.0537154"><ele>404.1428571428571</ele><time>2026-04-10T09:29:14.919Z</time></trkpt><trkpt lat="37.5713995" lon="15.0536607"><ele>404.7142857142857</ele><time>2026-04-10T09:29:18.88Z</time></trkpt><trkpt lat="37.5714508" lon="15.0535985"><ele>405.28571428571433</ele><time>2026-04-10T09:29:22.92Z</time></trkpt><trkpt lat="37.5714348" lon="15.0535082"><ele>405.8571428571429</ele><time>2026-04-10T09:29:28.893Z</time></trkpt><trkpt lat="37.5713853" lon="15.0534274"><ele>406.42857142857144</ele><time>2026-04-10T09:29:31.955Z</time></trkpt><trkpt lat="37.5713509" lon="15.0533519"><ele>407.0</ele><time>2026-04-10T09:29:34.914Z</time></trkpt><trkpt lat="37.5713106" lon="15.05327"><ele>407.28571428571433</ele><time>2026-04-10T09:29:38.982Z</time></trkpt><trkpt lat="37.571276" lon="15.0531844"><ele>407.57142857142856</ele><time>2026-04-10T09:29:43.973Z</time></trkpt><trkpt lat="37.5712363" lon="15.0531116"><ele>407.8571428571429</ele><time>2026-04-10T09:29:47.915Z</time></trkpt><trkpt lat="37.5711943" lon="15.0530448"><ele>408.14285714285717</ele><time>2026-04-10T09:29:51.919Z</time></trkpt><trkpt lat="37.571153" lon="15.0529637"><ele>408.42857142857144</ele><time>2026-04-10T09:29:55.933Z</time></trkpt><trkpt lat="37.5711207" lon="15.0528829"><ele>408.7142857142857</ele><time>2026-04-10T09:29:59.886Z</time></trkpt><trkpt lat="37.5710881" lon="15.0528083"><ele>409.0</ele><time>2026-04-10T09:30:03.942Z</time></trkpt><trkpt lat="37.5710374" lon="15.0527523"><ele>408.4285714285714</ele><time>2026-04-10T09:30:07.941Z</time></trkpt><trkpt lat="37.5709654" lon="15.0527809"><ele>407.8571428571429</ele><time>2026-04-10T09:30:11.939Z</time></trkpt><trkpt lat="37.5708969" lon="15.0528276"><ele>407.2857142857143</ele><time>2026-04-10T09:30:15.902Z</time></trkpt><trkpt lat="37.5708353" lon="15.0528547"><ele>406.71428571428567</ele><time>2026-04-10T09:30:18.98Z</time></trkpt><trkpt lat="37.5707665" lon="15.0528918"><ele>406.1428571428571</ele><time>2026-04-10T09:30:22.981Z</time></trkpt><trkpt lat="37.5707126" lon="15.0529337"><ele>405.57142857142856</ele><time>2026-04-10T09:30:26.925Z</time></trkpt><trkpt lat="37.5706446" lon="15.0529766"><ele>405.0</ele><time>2026-04-10T09:30:31.917Z</time></trkpt><trkpt lat="37.5705842" lon="15.0530382"><ele>404.99999999999994</ele><time>2026-04-10T09:30:35.869Z</time></trkpt><trkpt lat="37.5705392" lon="15.0531213"><ele>405.0</ele><time>2026-04-10T09:30:39.925Z</time></trkpt><trkpt lat="37.5705579" lon="15.0532071"><ele>405.0</ele><time>2026-04-10T09:30:43.981Z</time></trkpt><trkpt lat="37.570603" lon="15.0532932"><ele>405.0</ele><time>2026-04-10T09:30:48.981Z</time></trkpt><trkpt lat="37.5706307" lon="15.0533681"><ele>405.0</ele><time>2026-04-10T09:30:52.925Z</time></trkpt><trkpt lat="37.5706697" lon="15.0534486"><ele>404.99999999999994</ele><time>2026-04-10T09:30:56.979Z</time></trkpt><trkpt lat="37.5707031" lon="15.0535214"><ele>405.0</ele><time>2026-04-10T09:31:00.933Z</time></trkpt><trkpt lat="37.570736" lon="15.0535917"><ele>404.71428571428567</ele><time>2026-04-10T09:31:04.886Z</time></trkpt><trkpt lat="37.5707808" lon="15.053663"><ele>404.42857142857144</ele><time>2026-04-10T09:31:08.941Z</time></trkpt><trkpt lat="37.5708097" lon="15.053748"><ele>404.1428571428571</ele><time>2026-04-10T09:40:27.881Z</time></trkpt><trkpt lat="37.570848" lon="15.0538134"><ele>403.85714285714283</ele><time>2026-04-10T09:40:30.949Z</time></trkpt><trkpt lat="37.5708831" lon="15.0538945"><ele>403.57142857142856</ele><time>2026-04-10T09:40:33.861Z</time></trkpt><trkpt lat="37.5709231" lon="15.0539566"><ele>403.2857142857143</ele><time>2026-04-10T09:40:36.843Z</time></trkpt><trkpt lat="37.5709923" lon="15.0539573"><ele>403.0</ele><time>2026-04-10T09:40:46.221Z</time></trkpt><trkpt lat="37.5710575" lon="15.0538985"><ele>403.0</ele><time>2026-04-10T09:40:49.52Z</time></trkpt><trkpt lat="37.5711224" lon="15.0538529"><ele>403.0</ele><time>2026-04-10T09:40:52.821Z</time></trkpt><trkpt lat="37.57118" lon="15.053788"><ele>403.0</ele><time>2026-04-10T09:40:56.849Z</time></trkpt><trkpt lat="37.571242" lon="15.0537375"><ele>403.0</ele><time>2026-04-10T09:41:01.936Z</time></trkpt><trkpt lat="37.5712991" lon="15.0536872"><ele>403.0</ele><time>2026-04-10T09:41:05.999Z</time></trkpt><trkpt lat="37.571345" lon="15.0536314"><ele>403.0</ele><time>2026-04-10T09:41:10.99Z</time></trkpt><trkpt lat="37.5713856" lon="15.0535489"><ele>403.0</ele><time>2026-04-10T09:41:15.856Z</time></trkpt><trkpt lat="37.5713652" lon="15.0534549"><ele>403.2857142857143</ele><time>2026-04-10T09:41:20.897Z</time></trkpt><trkpt lat="37.5713189" lon="15.0533803"><ele>403.57142857142856</ele><time>2026-04-10T09:41:24.956Z</time></trkpt><trkpt lat="37.5712787" lon="15.0532903"><ele>403.85714285714283</ele><time>2026-04-10T09:41:28.937Z</time></trkpt><trkpt lat="37.5712413" lon="15.0532144"><ele>404.1428571428571</ele><time>2026-04-10T09:41:33.973Z</time></trkpt><trkpt lat="37.5712067" lon="15.0531408"><ele>404.42857142857144</ele><time>2026-04-10T09:41:37.925Z</time></trkpt><trkpt lat="37.5711698" lon="15.0530586"><ele>404.71428571428567</ele><time>2026-04-10T09:41:42.981Z</time></trkpt><trkpt lat="37.5711307" lon="15.0529795"><ele>405.0</ele><time>2026-04-10T09:41:46.869Z</time></trkpt><trkpt lat="37.5710866" lon="15.0528926"><ele>404.99999999999994</ele><time>2026-04-10T09:41:50.961Z</time></trkpt><trkpt lat="37.5710528" lon="15.0528255"><ele>405.0</ele><time>2026-04-10T09:41:54.877Z</time></trkpt><trkpt lat="37.5709964" lon="15.0527699"><ele>405.0</ele><time>2026-04-10T09:42:00.982Z</time></trkpt><trkpt lat="37.5709363" lon="15.0528032"><ele>405.0</ele><time>2026-04-10T09:42:05.897Z</time></trkpt><trkpt lat="37.5708794" lon="15.0528561"><ele>405.0</ele><time>2026-04-10T09:42:08.913Z</time></trkpt><trkpt lat="37.5708214" lon="15.0529039"><ele>404.99999999999994</ele><time>2026-04-10T09:42:13.005Z</time></trkpt><trkpt lat="37.570764" lon="15.0529465"><ele>405.0</ele><time>2026-04-10T09:42:16.922Z</time></trkpt><trkpt lat="37.5707027" lon="15.0529908"><ele>404.99999999999994</ele><time>2026-04-10T09:42:20.978Z</time></trkpt><trkpt lat="37.570643" lon="15.0530352"><ele>405.0</ele><time>2026-04-10T09:42:24.8Z</time></trkpt><trkpt lat="37.5705848" lon="15.0530788"><ele>405.0</ele><time>2026-04-10T09:42:28.985Z</time></trkpt><trkpt lat="37.5705407" lon="15.0531593"><ele>405.0</ele><time>2026-04-10T09:42:33.139Z</time></trkpt><trkpt lat="37.5705612" lon="15.0532457"><ele>405.0</ele><time>2026-04-10T09:42:37.521Z</time></trkpt><trkpt lat="37.5706031" lon="15.0533101"><ele>404.99999999999994</ele><time>2026-04-10T09:42:41.94Z</time></trkpt><trkpt lat="37.5706454" lon="15.0533755"><ele>405.0</ele><time>2026-04-10T09:42:45.917Z</time></trkpt><trkpt lat="37.5706844" lon="15.0534472"><ele>404.71428571428567</ele><time>2026-04-10T09:42:49.889Z</time></trkpt><trkpt lat="37.5707264" lon="15.0535278"><ele>404.42857142857144</ele><time>2026-04-10T09:42:53.96Z</time></trkpt><trkpt lat="37.5707615" lon="15.0536106"><ele>404.1428571428571</ele><time>2026-04-10T09:42:57.898Z</time></trkpt><trkpt lat="37.5708012" lon="15.0536953"><ele>403.85714285714283</ele><time>2026-04-10T09:43:01.954Z</time></trkpt><trkpt lat="37.5708387" lon="15.0537629"><ele>403.57142857142856</ele><time>2026-04-10T09:43:05.905Z</time></trkpt><trkpt lat="37.5708789" lon="15.0538331"><ele>403.2857142857143</ele><time>2026-04-10T09:43:09.961Z</time></trkpt><trkpt lat="37.570913" lon="15.0539031"><ele>403.0</ele><time>2026-04-10T09:43:13.913Z</time></trkpt><trkpt lat="37.5709617" lon="15.0539811"><ele>403.0</ele><time>2026-04-10T09:43:17.969Z</time></trkpt><trkpt lat="37.5710274" lon="15.0539446"><ele>403.0</ele><time>2026-04-10T09:43:24.938Z</time></trkpt><trkpt lat="37.5710714" lon="15.053874"><ele>403.0</ele><time>2026-04-10T09:43:28.939Z</time></trkpt><trkpt lat="37.5711309" lon="15.0538174"><ele>403.0</ele><time>2026-04-10T09:43:32.94Z</time></trkpt><trkpt lat="37.5712028" lon="15.053775"><ele>403.0</ele><time>2026-04-10T09:43:36.898Z</time></trkpt><trkpt lat="37.5712638" lon="15.0537341"><ele>403.0</ele><time>2026-04-10T09:43:40.954Z</time></trkpt><trkpt lat="37.571318" lon="15.0536883"><ele>403.0</ele><time>2026-04-10T09:43:44.905Z</time></trkpt><trkpt lat="37.5713772" lon="15.0536334"><ele>403.5714285714286</ele><time>2026-04-10T09:43:48.962Z</time></trkpt><trkpt lat="37.5714297" lon="15.053579"><ele>404.1428571428571</ele><time>2026-04-10T09:43:52.913Z</time></trkpt><trkpt lat="37.5713941" lon="15.053495"><ele>404.7142857142857</ele><time>2026-04-10T09:44:00.922Z</time></trkpt><trkpt lat="37.5713597" lon="15.0534145"><ele>405.28571428571433</ele><time>2026-04-10T09:44:03.938Z</time></trkpt><trkpt lat="37.5713179" lon="15.0533267"><ele>405.8571428571429</ele><time>2026-04-10T09:44:07.993Z</time></trkpt><trkpt lat="37.5712766" lon="15.0532643"><ele>406.42857142857144</ele><time>2026-04-10T09:44:11.946Z</time></trkpt><trkpt lat="37.571241" lon="15.0531921"><ele>407.0</ele><time>2026-04-10T09:44:15.897Z</time></trkpt><trkpt lat="37.5712048" lon="15.0531153"><ele>406.7142857142857</ele><time>2026-04-10T09:44:19.954Z</time></trkpt><trkpt lat="37.5711678" lon="15.0530395"><ele>406.42857142857144</ele><time>2026-04-10T09:44:23.905Z</time></trkpt><trkpt lat="37.5711315" lon="15.0529603"><ele>406.1428571428571</ele><time>2026-04-10T09:44:27.859Z</time></trkpt><trkpt lat="37.5710974" lon="15.0528881"><ele>405.8571428571429</ele><time>2026-04-10T09:44:31.914Z</time></trkpt><trkpt lat="37.5710578" lon="15.0528095"><ele>405.57142857142856</ele><time>2026-04-10T09:44:36.94Z</time></trkpt><trkpt lat="37.5709884" lon="15.0527784"><ele>405.2857142857143</ele><time>2026-04-10T09:44:43.419Z</time></trkpt><trkpt lat="37.5709277" lon="15.0528034"><ele>405.0</ele><time>2026-04-10T09:44:47.781Z</time></trkpt><trkpt lat="37.5708641" lon="15.0528771"><ele>404.99999999999994</ele><time>2026-04-10T09:44:52.119Z</time></trkpt><trkpt lat="37.5708226" lon="15.0529381"><ele>405.0</ele><time>2026-04-10T09:44:55.321Z</time></trkpt><trkpt lat="37.5707553" lon="15.0529952"><ele>405.0</ele><time>2026-04-10T09:44:59.6Z</time></trkpt><trkpt lat="37.5706779" lon="15.0530328"><ele>405.0</ele><time>2026-04-10T09:45:03.899Z</time></trkpt><trkpt lat="37.5705973" lon="15.0530552"><ele>405.0</ele><time>2026-04-10T09:45:08.001Z</time></trkpt><trkpt lat="37.5705477" lon="15.0531117"><ele>404.99999999999994</ele><time>2026-04-10T09:45:11.954Z</time></trkpt><trkpt lat="37.5705373" lon="15.0531941"><ele>405.0</ele><time>2026-04-10T09:45:15.906Z</time></trkpt><trkpt lat="37.5705894" lon="15.0532654"><ele>404.71428571428567</ele><time>2026-04-10T09:45:20.898Z</time></trkpt><trkpt lat="37.5706207" lon="15.0533361"><ele>404.42857142857144</ele><time>2026-04-10T09:45:24.85Z</time></trkpt><trkpt lat="37.57066" lon="15.0534149"><ele>404.1428571428571</ele><time>2026-04-10T09:45:28.92Z</time></trkpt><trkpt lat="37.5706949" lon="15.0534858"><ele>403.85714285714283</ele><time>2026-04-10T09:45:32.921Z</time></trkpt><trkpt lat="37.570729" lon="15.0535597"><ele>403.57142857142856</ele><time>2026-04-10T09:45:36.879Z</time></trkpt><trkpt lat="37.570767" lon="15.0536343"><ele>403.2857142857143</ele><time>2026-04-10T09:45:40.881Z</time></trkpt><trkpt lat="37.5708116" lon="15.0537209"><ele>403.0</ele><time>2026-04-10T09:45:44.879Z</time></trkpt><trkpt lat="37.570852" lon="15.0538019"><ele>403.0</ele><time>2026-04-10T09:45:48.962Z</time></trkpt><trkpt lat="37.570888" lon="15.0538742"><ele>403.0</ele><time>2026-04-10T09:45:53.004Z</time></trkpt><trkpt lat="37.570928" lon="15.0539483"><ele>403.0</ele><time>2026-04-10T09:45:56.881Z</time></trkpt><trkpt lat="37.5709919" lon="15.0539478"><ele>403.0</ele><time>2026-04-10T09:46:05.995Z</time></trkpt><trkpt lat="37.5710506" lon="15.0538956"><ele>403.0</ele><time>2026-04-10T09:46:09.881Z</time></trkpt><trkpt lat="37.5711191" lon="15.0538539"><ele>403.0</ele><time>2026-04-10T09:46:13.855Z</time></trkpt><trkpt lat="37.5711981" lon="15.0538237"><ele>403.0</ele><time>2026-04-10T09:46:17.975Z</time></trkpt><trkpt lat="37.5712601" lon="15.0537763"><ele>403.5714285714286</ele><time>2026-04-10T09:46:22.097Z</time></trkpt><trkpt lat="37.5713153" lon="15.0537101"><ele>404.1428571428571</ele><time>2026-04-10T09:46:26.476Z</time></trkpt><trkpt lat="37.5713605" lon="15.053652"><ele>404.7142857142857</ele><time>2026-04-10T09:46:30.876Z</time></trkpt><trkpt lat="37.5714154" lon="15.0535953"><ele>405.28571428571433</ele><time>2026-04-10T09:46:36.056Z</time></trkpt><trkpt lat="37.571431" lon="15.05351"><ele>405.8571428571429</ele><time>2026-04-10T09:46:41.678Z</time></trkpt><trkpt lat="37.5714012" lon="15.0534314"><ele>406.42857142857144</ele><time>2026-04-10T09:46:44.929Z</time></trkpt><trkpt lat="37.5713661" lon="15.0533581"><ele>407.0</ele><time>2026-04-10T09:46:47.947Z</time></trkpt><trkpt lat="37.5713183" lon="15.0532856"><ele>407.28571428571433</ele><time>2026-04-10T09:46:53.015Z</time></trkpt><trkpt lat="37.57128" lon="15.0532079"><ele>407.57142857142856</ele><time>2026-04-10T09:46:57.856Z</time></trkpt><trkpt lat="37.5712499" lon="15.0531375"><ele>407.8571428571429</ele><time>2026-04-10T09:47:02.977Z</time></trkpt><trkpt lat="37.5712153" lon="15.0530692"><ele>408.14285714285717</ele><time>2026-04-10T09:47:06.978Z</time></trkpt><trkpt lat="37.571171" lon="15.0529855"><ele>408.42857142857144</ele><time>2026-04-10T09:47:11.937Z</time></trkpt><trkpt lat="37.571132" lon="15.0529076"><ele>408.7142857142857</ele><time>2026-04-10T09:47:15.922Z</time></trkpt><trkpt lat="37.571095" lon="15.0528393"><ele>409.0</ele><time>2026-04-10T09:47:19.876Z</time></trkpt><trkpt lat="37.5710509" lon="15.0527748"><ele>408.4285714285714</ele><time>2026-04-10T09:47:24.97Z</time></trkpt><trkpt lat="37.5709821" lon="15.0528018"><ele>407.8571428571429</ele><time>2026-04-10T09:47:30.957Z</time></trkpt><trkpt lat="37.5709261" lon="15.0528405"><ele>407.2857142857143</ele><time>2026-04-10T09:47:34.851Z</time></trkpt><trkpt lat="37.5708665" lon="15.0528852"><ele>406.71428571428567</ele><time>2026-04-10T09:47:38.836Z</time></trkpt><trkpt lat="37.5708148" lon="15.052932"><ele>406.1428571428571</ele><time>2026-04-10T09:47:42.895Z</time></trkpt><trkpt lat="37.570747" lon="15.0529852"><ele>405.57142857142856</ele><time>2026-04-10T09:47:46.956Z</time></trkpt><trkpt lat="37.5706757" lon="15.0530235"><ele>405.0</ele><time>2026-04-10T09:47:51.906Z</time></trkpt><trkpt lat="37.5706102" lon="15.0530483"><ele>404.99999999999994</ele><time>2026-04-10T09:47:55.859Z</time></trkpt><trkpt lat="37.5705437" lon="15.0530812"><ele>405.0</ele><time>2026-04-10T09:47:59.836Z</time></trkpt><trkpt lat="37.5705248" lon="15.0531659"><ele>405.0</ele><time>2026-04-10T09:48:04.315Z</time></trkpt><trkpt lat="37.570569" lon="15.0532425"><ele>405.0</ele><time>2026-04-10T09:48:08.735Z</time></trkpt><trkpt lat="37.5706065" lon="15.0533096"><ele>405.0</ele><time>2026-04-10T09:48:12.915Z</time></trkpt><trkpt lat="37.5706449" lon="15.0533888"><ele>404.99999999999994</ele><time>2026-04-10T09:48:16.97Z</time></trkpt><trkpt lat="37.5706838" lon="15.0534663"><ele>405.0</ele><time>2026-04-10T09:48:20.922Z</time></trkpt><trkpt lat="37.5707204" lon="15.0535379"><ele>404.71428571428567</ele><time>2026-04-10T09:48:24.978Z</time></trkpt><trkpt lat="37.5707593" lon="15.05362"><ele>404.42857142857144</ele><time>2026-04-10T09:48:30.237Z</time></trkpt><trkpt lat="37.5708" lon="15.0536986"><ele>404.1428571428571</ele><time>2026-04-10T09:48:34.994Z</time></trkpt><trkpt lat="37.5708457" lon="15.0537773"><ele>403.85714285714283</ele><time>2026-04-10T09:48:39.954Z</time></trkpt><trkpt lat="37.5708801" lon="15.0538535"><ele>403.57142857142856</ele><time>2026-04-10T09:48:43.907Z</time></trkpt><trkpt lat="37.5709171" lon="15.0539348"><ele>403.2857142857143</ele><time>2026-04-10T09:48:47.963Z</time></trkpt><trkpt lat="37.57098" lon="15.0539502"><ele>403.0</ele><time>2026-04-10T09:48:55.969Z</time></trkpt><trkpt lat="37.5710407" lon="15.0539186"><ele>403.0</ele><time>2026-04-10T09:48:59.922Z</time></trkpt><trkpt lat="37.571103" lon="15.053877"><ele>403.0</ele><time>2026-04-10T09:49:02.937Z</time></trkpt><trkpt lat="37.5711656" lon="15.0538167"><ele>403.0</ele><time>2026-04-10T09:49:06.955Z</time></trkpt><trkpt lat="37.5712198" lon="15.0537724"><ele>403.0</ele><time>2026-04-10T09:49:10.919Z</time></trkpt><trkpt lat="37.5712844" lon="15.0537509"><ele>403.0</ele><time>2026-04-10T09:49:14.935Z</time></trkpt><trkpt lat="37.5713391" lon="15.0536827"><ele>403.0</ele><time>2026-04-10T09:49:19.89Z</time></trkpt><trkpt lat="37.5713924" lon="15.0536312"><ele>403.0</ele><time>2026-04-10T09:49:23.848Z</time></trkpt><trkpt lat="37.5714488" lon="15.0535656"><ele>403.5714285714286</ele><time>2026-04-10T09:49:28.939Z</time></trkpt><trkpt lat="37.5714184" lon="15.0534817"><ele>404.1428571428571</ele><time>2026-04-10T09:49:35.906Z</time></trkpt><trkpt lat="37.5713715" lon="15.0534071"><ele>404.7142857142857</ele><time>2026-04-10T09:49:38.975Z</time></trkpt><trkpt lat="37.5713299" lon="15.053332"><ele>405.28571428571433</ele><time>2026-04-10T09:49:41.975Z</time></trkpt><trkpt lat="37.5712958" lon="15.0532594"><ele>405.8571428571429</ele><time>2026-04-10T09:49:44.915Z</time></trkpt><trkpt lat="37.5712611" lon="15.0531769"><ele>406.42857142857144</ele><time>2026-04-10T09:49:48.977Z</time></trkpt><trkpt lat="37.5712267" lon="15.0531035"><ele>407.0</ele><time>2026-04-10T09:49:53.898Z</time></trkpt><trkpt lat="37.5711908" lon="15.0530323"><ele>406.7142857142857</ele><time>2026-04-10T09:49:58.993Z</time></trkpt><trkpt lat="37.571149" lon="15.0529495"><ele>406.42857142857144</ele><time>2026-04-10T09:50:03.999Z</time></trkpt><trkpt lat="37.5711159" lon="15.0528703"><ele>406.1428571428571</ele><time>2026-04-10T09:50:08.875Z</time></trkpt><trkpt lat="37.571075" lon="15.0527867"><ele>405.8571428571429</ele><time>2026-04-10T09:50:13.977Z</time></trkpt><trkpt lat="37.5710005" lon="15.0527681"><ele>405.57142857142856</ele><time>2026-04-10T09:50:18.858Z</time></trkpt><trkpt lat="37.570938" lon="15.0528153"><ele>405.2857142857143</ele><time>2026-04-10T09:50:22.914Z</time></trkpt><trkpt lat="37.5708689" lon="15.0528437"><ele>405.0</ele><time>2026-04-10T09:50:26.97Z</time></trkpt><trkpt lat="37.5708043" lon="15.0528679"><ele>404.99999999999994</ele><time>2026-04-10T09:50:30.922Z</time></trkpt><trkpt lat="37.5707354" lon="15.0528916"><ele>405.0</ele><time>2026-04-10T09:50:34.979Z</time></trkpt><trkpt lat="37.5706701" lon="15.0529356"><ele>405.0</ele><time>2026-04-10T09:50:38.93Z</time></trkpt><trkpt lat="37.5706146" lon="15.0529823"><ele>405.0</ele><time>2026-04-10T09:50:42.774Z</time></trkpt><trkpt lat="37.5705574" lon="15.0530325"><ele>405.0</ele><time>2026-04-10T09:50:46.938Z</time></trkpt><trkpt lat="37.5705225" lon="15.0531002"><ele>404.99999999999994</ele><time>2026-04-10T09:50:50.001Z</time></trkpt><trkpt lat="37.5705386" lon="15.0531854"><ele>405.0</ele><time>2026-04-10T09:50:53.375Z</time></trkpt><trkpt lat="37.5705841" lon="15.0532615"><ele>404.71428571428567</ele><time>2026-04-10T09:50:57.815Z</time></trkpt><trkpt lat="37.5706169" lon="15.0533487"><ele>404.42857142857144</ele><time>2026-04-10T09:51:01.914Z</time></trkpt><trkpt lat="37.5706525" lon="15.0534343"><ele>404.1428571428571</ele><time>2026-04-10T09:51:05.865Z</time></trkpt><trkpt lat="37.5706841" lon="15.0535133"><ele>403.85714285714283</ele><time>2026-04-10T09:51:09.922Z</time></trkpt><trkpt lat="37.5707226" lon="15.053582"><ele>403.57142857142856</ele><time>2026-04-10T09:51:13.915Z</time></trkpt><trkpt lat="37.5707615" lon="15.0536665"><ele>403.2857142857143</ele><time>2026-04-10T09:51:18.918Z</time></trkpt><trkpt lat="37.5708059" lon="15.0537372"><ele>403.0</ele><time>2026-04-10T09:51:22.894Z</time></trkpt><trkpt lat="37.5708441" lon="15.0538109"><ele>403.0</ele><time>2026-04-10T09:51:26.978Z</time></trkpt><trkpt lat="37.5708791" lon="15.0538842"><ele>403.0</ele><time>2026-04-10T09:51:30.93Z</time></trkpt><trkpt lat="37.5709182" lon="15.0539666"><ele>403.0</ele><time>2026-04-10T09:51:34.987Z</time></trkpt><trkpt lat="37.5709714" lon="15.0540205"><ele>403.0</ele><time>2026-04-10T09:51:40.895Z</time></trkpt><trkpt lat="37.5710288" lon="15.0539601"><ele>403.0</ele><time>2026-04-10T09:51:44.975Z</time></trkpt><trkpt lat="37.5710896" lon="15.0539198"><ele>403.0</ele><time>2026-04-10T09:51:47.975Z</time></trkpt><trkpt lat="37.5711609" lon="15.053878"><ele>403.0</ele><time>2026-04-10T09:51:51.936Z</time></trkpt><trkpt lat="37.5712148" lon="15.0538229"><ele>403.6666666666667</ele><time>2026-04-10T09:51:55.89Z</time></trkpt><trkpt lat="37.5712777" lon="15.0537615"><ele>404.33333333333337</ele><time>2026-04-10T09:52:00.875Z</time></trkpt><trkpt lat="37.5713452" lon="15.0536986"><ele>405.0</ele><time>2026-04-10T09:52:06.026Z</time></trkpt><trkpt lat="37.571401" lon="15.0536485"><ele>405.66666666666663</ele><time>2026-04-10T09:52:10.415Z</time></trkpt><trkpt lat="37.5714558" lon="15.0535838"><ele>406.3333333333333</ele><time>2026-04-10T09:52:15.857Z</time></trkpt><trkpt lat="37.5714021" lon="15.0534908"><ele>407.0</ele><time>2026-04-10T09:52:22.006Z</time></trkpt><trkpt lat="37.5713654" lon="15.053422"><ele>407.00000000000006</ele><time>2026-04-10T09:52:24.905Z</time></trkpt><trkpt lat="37.5713296" lon="15.0533429"><ele>407.0</ele><time>2026-04-10T09:52:27.922Z</time></trkpt><trkpt lat="37.5712914" lon="15.0532593"><ele>407.0</ele><time>2026-04-10T09:52:31.978Z</time></trkpt><trkpt lat="37.5712577" lon="15.053188"><ele>407.0</ele><time>2026-04-10T09:52:35.937Z</time></trkpt><trkpt lat="37.5712186" lon="15.0531087"><ele>407.0</ele><time>2026-04-10T09:52:40.856Z</time></trkpt><trkpt lat="37.5711722" lon="15.0530388"><ele>407.00000000000006</ele><time>2026-04-10T09:52:46.954Z</time></trkpt><trkpt lat="37.5711215" lon="15.0529546"><ele>407.0</ele><time>2026-04-10T09:52:51.235Z</time></trkpt><trkpt lat="37.571076" lon="15.0528686"><ele>406.7142857142857</ele><time>2026-04-10T09:52:55.756Z</time></trkpt><trkpt lat="37.5710406" lon="15.0528"><ele>406.42857142857144</ele><time>2026-04-10T09:52:59.954Z</time></trkpt><trkpt lat="37.5709747" lon="15.0527971"><ele>406.1428571428571</ele><time>2026-04-10T09:53:06.922Z</time></trkpt><trkpt lat="37.5709126" lon="15.0528532"><ele>405.8571428571429</ele><time>2026-04-10T09:53:11.914Z</time></trkpt><trkpt lat="37.5708574" lon="15.0528928"><ele>405.57142857142856</ele><time>2026-04-10T09:53:14.815Z</time></trkpt><trkpt lat="37.5708019" lon="15.0529384"><ele>405.2857142857143</ele><time>2026-04-10T09:53:17.945Z</time></trkpt><trkpt lat="37.5707419" lon="15.0529829"><ele>405.0</ele><time>2026-04-10T09:53:21.898Z</time></trkpt><trkpt lat="37.5706707" lon="15.0530158"><ele>404.99999999999994</ele><time>2026-04-10T09:53:25.895Z</time></trkpt><trkpt lat="37.5705987" lon="15.0530416"><ele>405.0</ele><time>2026-04-10T09:53:29.935Z</time></trkpt><trkpt lat="37.5705448" lon="15.0531038"><ele>405.0</ele><time>2026-04-10T09:53:33.916Z</time></trkpt><trkpt lat="37.5705492" lon="15.053201"><ele>405.0</ele><time>2026-04-10T09:53:38.336Z</time></trkpt><trkpt lat="37.5705962" lon="15.0532689"><ele>405.0</ele><time>2026-04-10T09:53:42.775Z</time></trkpt><trkpt lat="37.5706323" lon="15.0533509"><ele>404.99999999999994</ele><time>2026-04-10T09:53:46.859Z</time></trkpt><trkpt lat="37.5706673" lon="15.0534306"><ele>405.0</ele><time>2026-04-10T09:53:50.915Z</time></trkpt><trkpt lat="37.5707074" lon="15.0535129"><ele>404.71428571428567</ele><time>2026-04-10T09:53:54.897Z</time></trkpt><trkpt lat="37.5707415" lon="15.0535912"><ele>404.42857142857144</ele><time>2026-04-10T09:53:58.923Z</time></trkpt><trkpt lat="37.5707817" lon="15.0536674"><ele>404.1428571428571</ele><time>2026-04-10T09:54:02.635Z</time></trkpt><trkpt lat="37.5708272" lon="15.0537552"><ele>403.85714285714283</ele><time>2026-04-10T09:54:07.971Z</time></trkpt><trkpt lat="37.5708686" lon="15.0538387"><ele>403.57142857142856</ele><time>2026-04-10T09:54:11.922Z</time></trkpt><trkpt lat="37.5709035" lon="15.0539055"><ele>403.2857142857143</ele><time>2026-04-10T09:54:14.975Z</time></trkpt><trkpt lat="37.5709484" lon="15.0539841"><ele>403.0</ele><time>2026-04-10T09:54:18.835Z</time></trkpt><trkpt lat="37.5710109" lon="15.0539561"><ele>403.0</ele><time>2026-04-10T09:54:28.875Z</time></trkpt><trkpt lat="37.571067" lon="15.053915"><ele>403.0</ele><time>2026-04-10T09:54:31.856Z</time></trkpt><trkpt lat="37.5711351" lon="15.0538411"><ele>403.0</ele><time>2026-04-10T09:54:34.796Z</time></trkpt><trkpt lat="37.5711871" lon="15.0537956"><ele>403.0</ele><time>2026-04-10T09:54:36.996Z</time></trkpt><trkpt lat="37.5712508" lon="15.0537401"><ele>403.0</ele><time>2026-04-10T09:54:41.873Z</time></trkpt><trkpt lat="37.5713023" lon="15.053693"><ele>403.0</ele><time>2026-04-10T09:54:45.875Z</time></trkpt><trkpt lat="37.5713572" lon="15.0536393"><ele>403.0</ele><time>2026-04-10T09:54:50.923Z</time></trkpt><trkpt lat="37.5714091" lon="15.0535808"><ele>403.2857142857143</ele><time>2026-04-10T09:54:54.874Z</time></trkpt><trkpt lat="37.571405" lon="15.0534998"><ele>403.57142857142856</ele><time>2026-04-10T09:55:00.905Z</time></trkpt><trkpt lat="37.5713634" lon="15.053428"><ele>403.85714285714283</ele><time>2026-04-10T09:55:05.067Z</time></trkpt><trkpt lat="37.5713197" lon="15.0533371"><ele>404.1428571428571</ele><time>2026-04-10T09:55:08.537Z</time></trkpt><trkpt lat="37.571285" lon="15.0532663"><ele>404.42857142857144</ele><time>2026-04-10T09:55:11.895Z</time></trkpt><trkpt lat="37.5712482" lon="15.0531917"><ele>404.71428571428567</ele><time>2026-04-10T09:55:15.936Z</time></trkpt><trkpt lat="37.5712129" lon="15.0531138"><ele>405.0</ele><time>2026-04-10T09:55:19.938Z</time></trkpt><trkpt lat="37.5711762" lon="15.0530408"><ele>404.99999999999994</ele><time>2026-04-10T09:55:23.889Z</time></trkpt><trkpt lat="37.5711408" lon="15.0529638"><ele>405.0</ele><time>2026-04-10T09:55:27.969Z</time></trkpt><trkpt lat="37.5711047" lon="15.0528901"><ele>405.0</ele><time>2026-04-10T09:55:31.897Z</time></trkpt><trkpt lat="37.5710647" lon="15.0528104"><ele>405.0</ele><time>2026-04-10T09:55:36.916Z</time></trkpt><trkpt lat="37.5709909" lon="15.0527844"><ele>405.0</ele><time>2026-04-10T09:55:43.997Z</time></trkpt><trkpt lat="37.5709336" lon="15.0528183"><ele>404.99999999999994</ele><time>2026-04-10T09:55:47.914Z</time></trkpt><trkpt lat="37.5708546" lon="15.0528508"><ele>405.0</ele><time>2026-04-10T09:55:52.115Z</time></trkpt><trkpt lat="37.570797" lon="15.0528995"><ele>404.99999999999994</ele><time>2026-04-10T09:55:55.355Z</time></trkpt><trkpt lat="37.5707404" lon="15.0529467"><ele>405.0</ele><time>2026-04-10T09:55:58.656Z</time></trkpt><trkpt lat="37.5706726" lon="15.0530031"><ele>405.0</ele><time>2026-04-10T09:56:02.891Z</time></trkpt><trkpt lat="37.5706131" lon="15.0530363"><ele>405.0</ele><time>2026-04-10T09:56:05.958Z</time></trkpt><trkpt lat="37.5705489" lon="15.0530686"><ele>405.0</ele><time>2026-04-10T09:56:09.877Z</time></trkpt><trkpt lat="37.5705365" lon="15.0531514"><ele>404.99999999999994</ele><time>2026-04-10T09:56:14.215Z</time></trkpt><trkpt lat="37.5705814" lon="15.0532166"><ele>405.0</ele><time>2026-04-10T09:56:17.515Z</time></trkpt><trkpt lat="37.5706192" lon="15.0532884"><ele>404.6666666666667</ele><time>2026-04-10T09:56:20.695Z</time></trkpt><trkpt lat="37.5706446" lon="15.0533645"><ele>404.33333333333337</ele><time>2026-04-10T09:56:23.898Z</time></trkpt><trkpt lat="37.5706833" lon="15.0534551"><ele>404.0</ele><time>2026-04-10T09:56:27.954Z</time></trkpt><trkpt lat="37.5707224" lon="15.0535347"><ele>403.6666666666667</ele><time>2026-04-10T09:56:31.906Z</time></trkpt><trkpt lat="37.5707632" lon="15.0536188"><ele>403.33333333333337</ele><time>2026-04-10T09:56:35.962Z</time></trkpt><trkpt lat="37.5708091" lon="15.0537027"><ele>403.0</ele><time>2026-04-10T09:56:39.914Z</time></trkpt><trkpt lat="37.5708509" lon="15.0537917"><ele>403.0</ele><time>2026-04-10T09:56:44.815Z</time></trkpt><trkpt lat="37.5708905" lon="15.0538707"><ele>403.0</ele><time>2026-04-10T09:56:48.895Z</time></trkpt><trkpt lat="37.5709253" lon="15.0539371"><ele>403.0</ele><time>2026-04-10T09:56:52.914Z</time></trkpt><trkpt lat="37.5709762" lon="15.054001"><ele>403.0</ele><time>2026-04-10T09:56:57.906Z</time></trkpt><trkpt lat="37.5710273" lon="15.0539369"><ele>403.0</ele><time>2026-04-10T09:57:02.898Z</time></trkpt><trkpt lat="37.5710915" lon="15.0538781"><ele>403.0</ele><time>2026-04-10T09:57:06.953Z</time></trkpt><trkpt lat="37.5711499" lon="15.0538389"><ele>403.0</ele><time>2026-04-10T09:57:09.97Z</time></trkpt><trkpt lat="37.571206" lon="15.0537896"><ele>403.5714285714286</ele><time>2026-04-10T09:57:13.922Z</time></trkpt><trkpt lat="37.5712614" lon="15.0537343"><ele>404.1428571428571</ele><time>2026-04-10T09:57:17.895Z</time></trkpt><trkpt lat="37.5713291" lon="15.0536799"><ele>404.7142857142857</ele><time>2026-04-10T09:57:21.934Z</time></trkpt><trkpt lat="37.5713875" lon="15.0536202"><ele>405.28571428571433</ele><time>2026-04-10T09:57:26.921Z</time></trkpt><trkpt lat="37.5714328" lon="15.0535538"><ele>405.8571428571429</ele><time>2026-04-10T09:57:31.914Z</time></trkpt><trkpt lat="37.5713949" lon="15.0534828"><ele>406.42857142857144</ele><time>2026-04-10T09:57:36.905Z</time></trkpt><trkpt lat="37.5713635" lon="15.053413"><ele>407.0</ele><time>2026-04-10T09:57:39.922Z</time></trkpt><trkpt lat="37.5713321" lon="15.0533323"><ele>407.28571428571433</ele><time>2026-04-10T09:57:43.916Z</time></trkpt><trkpt lat="37.5713023" lon="15.053256"><ele>407.57142857142856</ele><time>2026-04-10T09:57:47.998Z</time></trkpt><trkpt lat="37.5712674" lon="15.0531814"><ele>407.8571428571429</ele><time>2026-04-10T09:57:51.986Z</time></trkpt><trkpt lat="37.5712321" lon="15.0531139"><ele>408.14285714285717</ele><time>2026-04-10T09:57:54.897Z</time></trkpt><trkpt lat="37.5711919" lon="15.053043"><ele>408.42857142857144</ele><time>2026-04-10T09:57:58.862Z</time></trkpt><trkpt lat="37.5711542" lon="15.0529774"><ele>408.7142857142857</ele><time>2026-04-10T09:58:02.875Z</time></trkpt><trkpt lat="37.5711129" lon="15.0528996"><ele>409.0</ele><time>2026-04-10T09:58:06.916Z</time></trkpt><trkpt lat="37.5710741" lon="15.0528211"><ele>408.33333333333337</ele><time>2026-04-10T09:58:11.953Z</time></trkpt><trkpt lat="37.5710115" lon="15.0527943"><ele>407.6666666666667</ele><time>2026-04-10T09:58:18.922Z</time></trkpt><trkpt lat="37.5709483" lon="15.0528353"><ele>407.0</ele><time>2026-04-10T09:58:22.977Z</time></trkpt><trkpt lat="37.5708846" lon="15.0528881"><ele>406.33333333333337</ele><time>2026-04-10T09:58:25.994Z</time></trkpt><trkpt lat="37.5708239" lon="15.0529327"><ele>405.6666666666667</ele><time>2026-04-10T09:58:29.946Z</time></trkpt><trkpt lat="37.5707468" lon="15.0529913"><ele>405.0</ele><time>2026-04-10T09:58:33.981Z</time></trkpt><trkpt lat="37.5706729" lon="15.0530239"><ele>404.99999999999994</ele><time>2026-04-10T09:58:37.953Z</time></trkpt><trkpt lat="37.5706066" lon="15.0530132"><ele>405.0</ele><time>2026-04-10T09:58:40.96Z</time></trkpt><trkpt lat="37.5705515" lon="15.0530588"><ele>405.0</ele><time>2026-04-10T09:58:44.921Z</time></trkpt><trkpt lat="37.5705435" lon="15.0531431"><ele>405.0</ele><time>2026-04-10T09:58:48.873Z</time></trkpt><trkpt lat="37.5705805" lon="15.0532345"><ele>405.0</ele><time>2026-04-10T09:58:52.929Z</time></trkpt><trkpt lat="37.570611" lon="15.0533193"><ele>404.99999999999994</ele><time>2026-04-10T09:58:57.921Z</time></trkpt><trkpt lat="37.5706434" lon="15.053402"><ele>405.0</ele><time>2026-04-10T09:59:01.874Z</time></trkpt><trkpt lat="37.5706825" lon="15.0534854"><ele>404.6666666666667</ele><time>2026-04-10T09:59:05.999Z</time></trkpt><trkpt lat="37.5707215" lon="15.0535695"><ele>404.33333333333337</ele><time>2026-04-10T09:59:09.882Z</time></trkpt><trkpt lat="37.570767" lon="15.0536536"><ele>404.0</ele><time>2026-04-10T09:59:13.965Z</time></trkpt><trkpt lat="37.57081" lon="15.0537276"><ele>403.6666666666667</ele><time>2026-04-10T09:59:17.889Z</time></trkpt><trkpt lat="37.570851" lon="15.0538084"><ele>403.33333333333337</ele><time>2026-04-10T09:59:23.219Z</time></trkpt><trkpt lat="37.5708874" lon="15.0538965"><ele>403.0</ele><time>2026-04-10T09:59:27.66Z</time></trkpt><trkpt lat="37.5709273" lon="15.0539651"><ele>403.0</ele><time>2026-04-10T09:59:31.929Z</time></trkpt><trkpt lat="37.5709908" lon="15.0539724"><ele>403.0</ele><time>2026-04-10T09:59:37.98Z</time></trkpt><trkpt lat="37.5710468" lon="15.0539116"><ele>403.0</ele><time>2026-04-10T09:59:42.003Z</time></trkpt><trkpt lat="37.5711146" lon="15.0538488"><ele>403.0</ele><time>2026-04-10T09:59:45.97Z</time></trkpt><trkpt lat="37.571177" lon="15.0538028"><ele>403.0</ele><time>2026-04-10T09:59:49.839Z</time></trkpt><trkpt lat="37.5712314" lon="15.0537604"><ele>403.0</ele><time>2026-04-10T09:59:52.937Z</time></trkpt><trkpt lat="37.5712829" lon="15.0537136"><ele>403.0</ele><time>2026-04-10T09:59:56.89Z</time></trkpt><trkpt lat="37.5713357" lon="15.0536652"><ele>403.5714285714286</ele><time>2026-04-10T10:00:00.879Z</time></trkpt><trkpt lat="37.5713951" lon="15.0536072"><ele>404.1428571428571</ele><time>2026-04-10T10:00:05.937Z</time></trkpt><trkpt lat="37.5714376" lon="15.0535373"><ele>404.7142857142857</ele><time>2026-04-10T10:00:11.419Z</time></trkpt><trkpt lat="37.571394" lon="15.0534669"><ele>405.28571428571433</ele><time>2026-04-10T10:00:15.94Z</time></trkpt><trkpt lat="37.5713585" lon="15.0533978"><ele>405.8571428571429</ele><time>2026-04-10T10:00:18.92Z</time></trkpt><trkpt lat="37.5713256" lon="15.0533232"><ele>406.42857142857144</ele><time>2026-04-10T10:00:21.9Z</time></trkpt><trkpt lat="37.5712963" lon="15.0532517"><ele>407.0</ele><time>2026-04-10T10:00:25.98Z</time></trkpt><trkpt lat="37.5712574" lon="15.0531809"><ele>407.28571428571433</ele><time>2026-04-10T10:00:30.898Z</time></trkpt><trkpt lat="37.5712143" lon="15.0531041"><ele>407.57142857142856</ele><time>2026-04-10T10:00:34.953Z</time></trkpt><trkpt lat="37.5711733" lon="15.0530302"><ele>407.8571428571429</ele><time>2026-04-10T10:00:38.9Z</time></trkpt><trkpt lat="37.5711313" lon="15.0529452"><ele>408.14285714285717</ele><time>2026-04-10T10:00:43.88Z</time></trkpt><trkpt lat="37.5710933" lon="15.0528694"><ele>408.42857142857144</ele><time>2026-04-10T10:00:47.959Z</time></trkpt><trkpt lat="37.5710563" lon="15.0527984"><ele>408.7142857142857</ele><time>2026-04-10T10:00:52.946Z</time></trkpt><trkpt lat="37.5709883" lon="15.0527815"><ele>409.0</ele><time>2026-04-10T10:00:58.92Z</time></trkpt><trkpt lat="37.5709116" lon="15.05283"><ele>408.4285714285714</ele><time>2026-04-10T10:01:03.969Z</time></trkpt><trkpt lat="37.5708507" lon="15.0528563"><ele>407.8571428571429</ele><time>2026-04-10T10:01:06.986Z</time></trkpt><trkpt lat="37.570785" lon="15.0529069"><ele>407.2857142857143</ele><time>2026-04-10T10:01:10.96Z</time></trkpt><trkpt lat="37.5707196" lon="15.0529557"><ele>406.71428571428567</ele><time>2026-04-10T10:01:14.89Z</time></trkpt><trkpt lat="37.5706634" lon="15.0530003"><ele>406.1428571428571</ele><time>2026-04-10T10:01:18.946Z</time></trkpt><trkpt lat="37.5706053" lon="15.0530382"><ele>405.57142857142856</ele><time>2026-04-10T10:01:22.881Z</time></trkpt><trkpt lat="37.5705482" lon="15.053088"><ele>405.0</ele><time>2026-04-10T10:01:26.86Z</time></trkpt><trkpt lat="37.5705608" lon="15.053166"><ele>404.99999999999994</ele><time>2026-04-10T10:01:31.846Z</time></trkpt><trkpt lat="37.5705933" lon="15.0532399"><ele>405.0</ele><time>2026-04-10T10:01:36.938Z</time></trkpt><trkpt lat="37.5706449" lon="15.0533208"><ele>405.0</ele><time>2026-04-10T10:01:40.889Z</time></trkpt><trkpt lat="37.5706877" lon="15.0534017"><ele>405.0</ele><time>2026-04-10T10:01:43.905Z</time></trkpt><trkpt lat="37.5707304" lon="15.0534798"><ele>405.0</ele><time>2026-04-10T10:01:47.858Z</time></trkpt><trkpt lat="37.5707988" lon="15.0535095"><ele>404.99999999999994</ele><time>2026-04-10T10:01:53.898Z</time></trkpt><trkpt lat="37.5708007" lon="15.0536038"><ele>405.0</ele><time>2026-04-10T10:01:55.865Z</time></trkpt><trkpt lat="37.5708242" lon="15.0536835"><ele>404.6666666666667</ele><time>2026-04-10T10:01:57.846Z</time></trkpt><trkpt lat="37.570868" lon="15.0537697"><ele>404.33333333333337</ele><time>2026-04-10T10:02:00.835Z</time></trkpt><trkpt lat="37.570914" lon="15.0538541"><ele>404.0</ele><time>2026-04-10T10:02:03.694Z</time></trkpt><trkpt lat="37.5709811" lon="15.0539384"><ele>403.6666666666667</ele><time>2026-04-10T10:02:06.936Z</time></trkpt><trkpt lat="37.5710531" lon="15.0539265"><ele>403.33333333333337</ele><time>2026-04-10T10:02:11.977Z</time></trkpt><trkpt lat="37.5711134" lon="15.0538986"><ele>403.0</ele><time>2026-04-10T10:02:13.962Z</time></trkpt><trkpt lat="37.5711699" lon="15.0538421"><ele>403.5714285714286</ele><time>2026-04-10T10:02:15.846Z</time></trkpt><trkpt lat="37.5712191" lon="15.0537883"><ele>404.1428571428571</ele><time>2026-04-10T10:02:17.913Z</time></trkpt><trkpt lat="37.5712755" lon="15.053727"><ele>404.7142857142857</ele><time>2026-04-10T10:02:20.035Z</time></trkpt><trkpt lat="37.5713402" lon="15.05364"><ele>405.28571428571433</ele><time>2026-04-10T10:02:22.905Z</time></trkpt><trkpt lat="37.5713957" lon="15.0535967"><ele>405.8571428571429</ele><time>2026-04-10T10:02:24.985Z</time></trkpt><trkpt lat="37.5714378" lon="15.0535326"><ele>406.42857142857144</ele><time>2026-04-10T10:02:27.897Z</time></trkpt><trkpt lat="37.5714693" lon="15.0534519"><ele>407.0</ele><time>2026-04-10T10:02:32.889Z</time></trkpt><trkpt lat="37.5714421" lon="15.0533746"><ele>406.99999999999994</ele><time>2026-04-10T10:02:35.836Z</time></trkpt><trkpt lat="37.5713983" lon="15.0532936"><ele>407.0</ele><time>2026-04-10T10:02:38.876Z</time></trkpt><trkpt lat="37.571317" lon="15.0531932"><ele>407.0</ele><time>2026-04-10T10:02:40.896Z</time></trkpt><trkpt lat="37.5712615" lon="15.053143"><ele>407.0</ele><time>2026-04-10T10:02:42.915Z</time></trkpt><trkpt lat="37.5711996" lon="15.0530662"><ele>406.99999999999994</ele><time>2026-04-10T10:02:45.889Z</time></trkpt><trkpt lat="37.5711614" lon="15.0529748"><ele>407.0</ele><time>2026-04-10T10:02:48.906Z</time></trkpt><trkpt lat="37.5711234" lon="15.0528941"><ele>406.66666666666663</ele><time>2026-04-10T10:02:51.921Z</time></trkpt><trkpt lat="37.5710841" lon="15.0528257"><ele>406.3333333333333</ele><time>2026-04-10T10:02:54.895Z</time></trkpt><trkpt lat="37.5710156" lon="15.0528222"><ele>406.0</ele><time>2026-04-10T10:02:59.93Z</time></trkpt><trkpt lat="37.5709391" lon="15.0528766"><ele>405.66666666666663</ele><time>2026-04-10T10:03:03.835Z</time></trkpt><trkpt lat="37.5708564" lon="15.0529348"><ele>405.3333333333333</ele><time>2026-04-10T10:03:06.876Z</time></trkpt><trkpt lat="37.570774" lon="15.0529813"><ele>405.0</ele><time>2026-04-10T10:03:09.895Z</time></trkpt><trkpt lat="37.5706848" lon="15.0530171"><ele>404.99999999999994</ele><time>2026-04-10T10:03:12.916Z</time></trkpt><trkpt lat="37.5706033" lon="15.0530487"><ele>405.0</ele><time>2026-04-10T10:03:15.895Z</time></trkpt><trkpt lat="37.5705772" lon="15.0531398"><ele>405.0</ele><time>2026-04-10T10:03:19.976Z</time></trkpt><trkpt lat="37.5706206" lon="15.0532159"><ele>405.0</ele><time>2026-04-10T10:03:22.913Z</time></trkpt><trkpt lat="37.5706516" lon="15.0532965"><ele>405.0</ele><time>2026-04-10T10:03:25.929Z</time></trkpt><trkpt lat="37.5706777" lon="15.0533699"><ele>404.99999999999994</ele><time>2026-04-10T10:03:28.757Z</time></trkpt><trkpt lat="37.5707177" lon="15.0534526"><ele>405.0</ele><time>2026-04-10T10:03:31.815Z</time></trkpt><trkpt lat="37.5707647" lon="15.0535387"><ele>403.0</ele><time>2026-04-10T10:03:34.977Z</time></trkpt><trkpt lat="37.5707647" lon="15.0535387"><ele>403.0</ele><time>2026-04-10T10:03:34.977Z</time></trkpt></trkseg></trk></gpx>